<?xml version="1.0" encoding="UTF-8" standalone="no" ?>
<gpx xmlns="http://www.topografix.com/GPX/1/1" xmlns:xsi="http://www.w3.org/2001/XMLSchema-instance" xsi:schemaLocation="http://www.topografix.com/GPX/1/1 http://www.topografix.com/GPX/1/1/gpx.xsd" version="1.1" creator="VisuGPX - https://www.visugpx.com">
  <metadata>
    <name>Boucle entre les ruisseaux au départ de Taisnières-sur-Hon</name>
  </metadata>
  <wpt lat="50.31924" lon="3.83484">
    <ele>143.6</ele>
    <name><![CDATA[Place de Taisnières-sur-Hon]]></name>
  </wpt>
  <wpt lat="50.31297" lon="3.82777">
    <ele>146.6</ele>
    <name><![CDATA[À gauche à l'intersection]]></name>
  </wpt>
  <wpt lat="50.30732" lon="3.81705">
    <ele>146.4</ele>
    <name><![CDATA[À droite]]></name>
    <type><![CDATA[ avant la ferme du Petit Chêne]]></type>
  </wpt>
  <wpt lat="50.31289" lon="3.8021">
    <ele>124.5</ele>
    <name><![CDATA[Ruisseau Raoult]]></name>
  </wpt>
  <wpt lat="50.31613" lon="3.79702">
    <ele>122.5</ele>
    <name><![CDATA[À droite sur la route goudronnée]]></name>
  </wpt>
  <wpt lat="50.32434" lon="3.7994">
    <ele>109.6</ele>
    <name><![CDATA[À droite avant le Pont des Bergers]]></name>
  </wpt>
  <wpt lat="50.32808" lon="3.81149">
    <ele>113.8</ele>
    <name><![CDATA[L’Hogneau]]></name>
  </wpt>
  <wpt lat="50.32819" lon="3.82221">
    <ele>120.8</ele>
    <name><![CDATA[Ruelle Lambinet]]></name>
  </wpt>
  <wpt lat="50.32123" lon="3.83124">
    <ele>132</ele>
    <name><![CDATA[Taisnières-sur-Hon]]></name>
  </wpt>
  <wpt lat="50.31925" lon="3.83484">
    <ele>143.6</ele>
    <name><![CDATA[Place de Taisnières-sur-Hon.]]></name>
  </wpt>
  <trk>
    <name><![CDATA[Boucle entre les ruisseaux au départ de Taisnières-sur-Hon]]></name>
    <trkseg>
      <trkpt lat="50.31924" lon="3.83484">
        <ele>145</ele>
        <time>2012-07-06T08:08:01+02:00</time>
      </trkpt>
      <trkpt lat="50.31924" lon="3.83484">
        <ele>145</ele>
        <time>2012-07-06T08:08:01+02:00</time>
      </trkpt>
      <trkpt lat="50.31919" lon="3.83471">
        <ele>144</ele>
        <time>2012-07-06T08:09:39+02:00</time>
      </trkpt>
      <trkpt lat="50.3191" lon="3.83462">
        <ele>144</ele>
        <time>2012-07-06T08:09:47+02:00</time>
      </trkpt>
      <trkpt lat="50.319" lon="3.83457">
        <ele>143</ele>
        <time>2012-07-06T08:09:55+02:00</time>
      </trkpt>
      <trkpt lat="50.31889" lon="3.83454">
        <ele>143</ele>
        <time>2012-07-06T08:10:04+02:00</time>
      </trkpt>
      <trkpt lat="50.31878" lon="3.83451">
        <ele>142</ele>
        <time>2012-07-06T08:10:11+02:00</time>
      </trkpt>
      <trkpt lat="50.31869" lon="3.83448">
        <ele>142</ele>
        <time>2012-07-06T08:10:17+02:00</time>
      </trkpt>
      <trkpt lat="50.3186" lon="3.83444">
        <ele>142</ele>
        <time>2012-07-06T08:10:25+02:00</time>
      </trkpt>
      <trkpt lat="50.3185" lon="3.83441">
        <ele>141</ele>
        <time>2012-07-06T08:10:32+02:00</time>
      </trkpt>
      <trkpt lat="50.31841" lon="3.83438">
        <ele>141</ele>
        <time>2012-07-06T08:10:39+02:00</time>
      </trkpt>
      <trkpt lat="50.31831" lon="3.83435">
        <ele>141</ele>
        <time>2012-07-06T08:10:45+02:00</time>
      </trkpt>
      <trkpt lat="50.31821" lon="3.83433">
        <ele>140</ele>
        <time>2012-07-06T08:10:53+02:00</time>
      </trkpt>
      <trkpt lat="50.31811" lon="3.83433">
        <ele>139</ele>
        <time>2012-07-06T08:11:00+02:00</time>
      </trkpt>
      <trkpt lat="50.31801" lon="3.83435">
        <ele>139</ele>
        <time>2012-07-06T08:11:07+02:00</time>
      </trkpt>
      <trkpt lat="50.31793" lon="3.83436">
        <ele>138</ele>
        <time>2012-07-06T08:11:12+02:00</time>
      </trkpt>
      <trkpt lat="50.31784" lon="3.83439">
        <ele>138</ele>
        <time>2012-07-06T08:11:18+02:00</time>
      </trkpt>
      <trkpt lat="50.31775" lon="3.83443">
        <ele>137</ele>
        <time>2012-07-06T08:11:26+02:00</time>
      </trkpt>
      <trkpt lat="50.31774" lon="3.83461">
        <ele>137</ele>
        <time>2012-07-06T08:11:36+02:00</time>
      </trkpt>
      <trkpt lat="50.31773" lon="3.83476">
        <ele>137</ele>
        <time>2012-07-06T08:11:43+02:00</time>
      </trkpt>
      <trkpt lat="50.31772" lon="3.83492">
        <ele>136</ele>
        <time>2012-07-06T08:11:49+02:00</time>
      </trkpt>
      <trkpt lat="50.31769" lon="3.83505">
        <ele>136</ele>
        <time>2012-07-06T08:11:55+02:00</time>
      </trkpt>
      <trkpt lat="50.31767" lon="3.83519">
        <ele>136</ele>
        <time>2012-07-06T08:12:03+02:00</time>
      </trkpt>
      <trkpt lat="50.31765" lon="3.83534">
        <ele>136</ele>
        <time>2012-07-06T08:12:10+02:00</time>
      </trkpt>
      <trkpt lat="50.31764" lon="3.83549">
        <ele>136</ele>
        <time>2012-07-06T08:12:17+02:00</time>
      </trkpt>
      <trkpt lat="50.31762" lon="3.83564">
        <ele>136</ele>
        <time>2012-07-06T08:12:24+02:00</time>
      </trkpt>
      <trkpt lat="50.3176" lon="3.83578">
        <ele>136</ele>
        <time>2012-07-06T08:12:31+02:00</time>
      </trkpt>
      <trkpt lat="50.31757" lon="3.83595">
        <ele>135</ele>
        <time>2012-07-06T08:12:40+02:00</time>
      </trkpt>
      <trkpt lat="50.31755" lon="3.83611">
        <ele>135</ele>
        <time>2012-07-06T08:12:47+02:00</time>
      </trkpt>
      <trkpt lat="50.31753" lon="3.83626">
        <ele>135</ele>
        <time>2012-07-06T08:12:54+02:00</time>
      </trkpt>
      <trkpt lat="50.31753" lon="3.8364">
        <ele>135</ele>
        <time>2012-07-06T08:13:01+02:00</time>
      </trkpt>
      <trkpt lat="50.31751" lon="3.83655">
        <ele>135</ele>
        <time>2012-07-06T08:13:08+02:00</time>
      </trkpt>
      <trkpt lat="50.31747" lon="3.83671">
        <ele>135</ele>
        <time>2012-07-06T08:13:18+02:00</time>
      </trkpt>
      <trkpt lat="50.31743" lon="3.83684">
        <ele>135</ele>
        <time>2012-07-06T08:13:25+02:00</time>
      </trkpt>
      <trkpt lat="50.31739" lon="3.83698">
        <ele>135</ele>
        <time>2012-07-06T08:13:32+02:00</time>
      </trkpt>
      <trkpt lat="50.31734" lon="3.83711">
        <ele>134</ele>
        <time>2012-07-06T08:13:38+02:00</time>
      </trkpt>
      <trkpt lat="50.3173" lon="3.83724">
        <ele>134</ele>
        <time>2012-07-06T08:13:44+02:00</time>
      </trkpt>
      <trkpt lat="50.31727" lon="3.83736">
        <ele>134</ele>
        <time>2012-07-06T08:13:52+02:00</time>
      </trkpt>
      <trkpt lat="50.31723" lon="3.83752">
        <ele>134</ele>
        <time>2012-07-06T08:14:01+02:00</time>
      </trkpt>
      <trkpt lat="50.31719" lon="3.83766">
        <ele>134</ele>
        <time>2012-07-06T08:14:08+02:00</time>
      </trkpt>
      <trkpt lat="50.31718" lon="3.83779">
        <ele>134</ele>
        <time>2012-07-06T08:14:15+02:00</time>
      </trkpt>
      <trkpt lat="50.31714" lon="3.83794">
        <ele>134</ele>
        <time>2012-07-06T08:14:22+02:00</time>
      </trkpt>
      <trkpt lat="50.3171" lon="3.83806">
        <ele>134</ele>
        <time>2012-07-06T08:14:28+02:00</time>
      </trkpt>
      <trkpt lat="50.31701" lon="3.83802">
        <ele>133</ele>
        <time>2012-07-06T08:14:36+02:00</time>
      </trkpt>
      <trkpt lat="50.31693" lon="3.83789">
        <ele>133</ele>
        <time>2012-07-06T08:14:46+02:00</time>
      </trkpt>
      <trkpt lat="50.31685" lon="3.83772">
        <ele>132</ele>
        <time>2012-07-06T08:14:57+02:00</time>
      </trkpt>
      <trkpt lat="50.31675" lon="3.83763">
        <ele>131</ele>
        <time>2012-07-06T08:15:04+02:00</time>
      </trkpt>
      <trkpt lat="50.31666" lon="3.83751">
        <ele>130</ele>
        <time>2012-07-06T08:15:12+02:00</time>
      </trkpt>
      <trkpt lat="50.31658" lon="3.8374">
        <ele>130</ele>
        <time>2012-07-06T08:15:22+02:00</time>
      </trkpt>
      <trkpt lat="50.31649" lon="3.83729">
        <ele>130</ele>
        <time>2012-07-06T08:15:29+02:00</time>
      </trkpt>
      <trkpt lat="50.31643" lon="3.83719">
        <ele>130</ele>
        <time>2012-07-06T08:15:36+02:00</time>
      </trkpt>
      <trkpt lat="50.31633" lon="3.83713">
        <ele>130</ele>
        <time>2012-07-06T08:15:44+02:00</time>
      </trkpt>
      <trkpt lat="50.31624" lon="3.83702">
        <ele>129</ele>
        <time>2012-07-06T08:15:52+02:00</time>
      </trkpt>
      <trkpt lat="50.31615" lon="3.83694">
        <ele>129</ele>
        <time>2012-07-06T08:15:58+02:00</time>
      </trkpt>
      <trkpt lat="50.31608" lon="3.83684">
        <ele>129</ele>
        <time>2012-07-06T08:16:05+02:00</time>
      </trkpt>
      <trkpt lat="50.31599" lon="3.83673">
        <ele>129</ele>
        <time>2012-07-06T08:16:14+02:00</time>
      </trkpt>
      <trkpt lat="50.31592" lon="3.83664">
        <ele>129</ele>
        <time>2012-07-06T08:16:20+02:00</time>
      </trkpt>
      <trkpt lat="50.31585" lon="3.83654">
        <ele>129</ele>
        <time>2012-07-06T08:16:29+02:00</time>
      </trkpt>
      <trkpt lat="50.31575" lon="3.83643">
        <ele>130</ele>
        <time>2012-07-06T08:16:36+02:00</time>
      </trkpt>
      <trkpt lat="50.31569" lon="3.83633">
        <ele>131</ele>
        <time>2012-07-06T08:16:42+02:00</time>
      </trkpt>
      <trkpt lat="50.31561" lon="3.83621">
        <ele>132</ele>
        <time>2012-07-06T08:16:51+02:00</time>
      </trkpt>
      <trkpt lat="50.31553" lon="3.83611">
        <ele>133</ele>
        <time>2012-07-06T08:16:58+02:00</time>
      </trkpt>
      <trkpt lat="50.31546" lon="3.83598">
        <ele>134</ele>
        <time>2012-07-06T08:17:07+02:00</time>
      </trkpt>
      <trkpt lat="50.31538" lon="3.83587">
        <ele>135</ele>
        <time>2012-07-06T08:17:14+02:00</time>
      </trkpt>
      <trkpt lat="50.31531" lon="3.83574">
        <ele>136</ele>
        <time>2012-07-06T08:17:23+02:00</time>
      </trkpt>
      <trkpt lat="50.31523" lon="3.83563">
        <ele>136</ele>
        <time>2012-07-06T08:17:30+02:00</time>
      </trkpt>
      <trkpt lat="50.31517" lon="3.83553">
        <ele>137</ele>
        <time>2012-07-06T08:17:37+02:00</time>
      </trkpt>
      <trkpt lat="50.3151" lon="3.83542">
        <ele>137</ele>
        <time>2012-07-06T08:17:45+02:00</time>
      </trkpt>
      <trkpt lat="50.31504" lon="3.83528">
        <ele>137</ele>
        <time>2012-07-06T08:17:53+02:00</time>
      </trkpt>
      <trkpt lat="50.31499" lon="3.83518">
        <ele>137</ele>
        <time>2012-07-06T08:18:02+02:00</time>
      </trkpt>
      <trkpt lat="50.31491" lon="3.83507">
        <ele>137</ele>
        <time>2012-07-06T08:18:08+02:00</time>
      </trkpt>
      <trkpt lat="50.31484" lon="3.83496">
        <ele>137</ele>
        <time>2012-07-06T08:18:16+02:00</time>
      </trkpt>
      <trkpt lat="50.31478" lon="3.83485">
        <ele>137</ele>
        <time>2012-07-06T08:18:22+02:00</time>
      </trkpt>
      <trkpt lat="50.31472" lon="3.83474">
        <ele>137</ele>
        <time>2012-07-06T08:18:30+02:00</time>
      </trkpt>
      <trkpt lat="50.31465" lon="3.83463">
        <ele>137</ele>
        <time>2012-07-06T08:18:36+02:00</time>
      </trkpt>
      <trkpt lat="50.31458" lon="3.83449">
        <ele>137</ele>
        <time>2012-07-06T08:18:46+02:00</time>
      </trkpt>
      <trkpt lat="50.31452" lon="3.83438">
        <ele>137</ele>
        <time>2012-07-06T08:18:52+02:00</time>
      </trkpt>
      <trkpt lat="50.31447" lon="3.83424">
        <ele>137</ele>
        <time>2012-07-06T08:19:01+02:00</time>
      </trkpt>
      <trkpt lat="50.31444" lon="3.83409">
        <ele>138</ele>
        <time>2012-07-06T08:19:07+02:00</time>
      </trkpt>
      <trkpt lat="50.31444" lon="3.83393">
        <ele>138</ele>
        <time>2012-07-06T08:19:16+02:00</time>
      </trkpt>
      <trkpt lat="50.31444" lon="3.83379">
        <ele>138</ele>
        <time>2012-07-06T08:19:22+02:00</time>
      </trkpt>
      <trkpt lat="50.31447" lon="3.83363">
        <ele>139</ele>
        <time>2012-07-06T08:19:31+02:00</time>
      </trkpt>
      <trkpt lat="50.31451" lon="3.83347">
        <ele>139</ele>
        <time>2012-07-06T08:19:38+02:00</time>
      </trkpt>
      <trkpt lat="50.31453" lon="3.83332">
        <ele>140</ele>
        <time>2012-07-06T08:19:47+02:00</time>
      </trkpt>
      <trkpt lat="50.31457" lon="3.8332">
        <ele>140</ele>
        <time>2012-07-06T08:19:53+02:00</time>
      </trkpt>
      <trkpt lat="50.31458" lon="3.83303">
        <ele>140</ele>
        <time>2012-07-06T08:20:01+02:00</time>
      </trkpt>
      <trkpt lat="50.31458" lon="3.83288">
        <ele>140</ele>
        <time>2012-07-06T08:20:09+02:00</time>
      </trkpt>
      <trkpt lat="50.31458" lon="3.83273">
        <ele>141</ele>
        <time>2012-07-06T08:20:15+02:00</time>
      </trkpt>
      <trkpt lat="50.31454" lon="3.83258">
        <ele>141</ele>
        <time>2012-07-06T08:20:23+02:00</time>
      </trkpt>
      <trkpt lat="50.31451" lon="3.83246">
        <ele>141</ele>
        <time>2012-07-06T08:20:30+02:00</time>
      </trkpt>
      <trkpt lat="50.31448" lon="3.8323">
        <ele>142</ele>
        <time>2012-07-06T08:20:37+02:00</time>
      </trkpt>
      <trkpt lat="50.31445" lon="3.83219">
        <ele>142</ele>
        <time>2012-07-06T08:20:44+02:00</time>
      </trkpt>
      <trkpt lat="50.31439" lon="3.83207">
        <ele>142</ele>
        <time>2012-07-06T08:20:51+02:00</time>
      </trkpt>
      <trkpt lat="50.31433" lon="3.83196">
        <ele>142</ele>
        <time>2012-07-06T08:20:59+02:00</time>
      </trkpt>
      <trkpt lat="50.31428" lon="3.83183">
        <ele>143</ele>
        <time>2012-07-06T08:21:06+02:00</time>
      </trkpt>
      <trkpt lat="50.31424" lon="3.8317">
        <ele>143</ele>
        <time>2012-07-06T08:21:13+02:00</time>
      </trkpt>
      <trkpt lat="50.31418" lon="3.83155">
        <ele>143</ele>
        <time>2012-07-06T08:21:21+02:00</time>
      </trkpt>
      <trkpt lat="50.31413" lon="3.83143">
        <ele>143</ele>
        <time>2012-07-06T08:21:29+02:00</time>
      </trkpt>
      <trkpt lat="50.31408" lon="3.83129">
        <ele>143</ele>
        <time>2012-07-06T08:21:36+02:00</time>
      </trkpt>
      <trkpt lat="50.31404" lon="3.83117">
        <ele>143</ele>
        <time>2012-07-06T08:21:43+02:00</time>
      </trkpt>
      <trkpt lat="50.31399" lon="3.83104">
        <ele>143</ele>
        <time>2012-07-06T08:21:51+02:00</time>
      </trkpt>
      <trkpt lat="50.31394" lon="3.83092">
        <ele>144</ele>
        <time>2012-07-06T08:21:59+02:00</time>
      </trkpt>
      <trkpt lat="50.3139" lon="3.8308">
        <ele>144</ele>
        <time>2012-07-06T08:22:07+02:00</time>
      </trkpt>
      <trkpt lat="50.31384" lon="3.83067">
        <ele>144</ele>
        <time>2012-07-06T08:22:14+02:00</time>
      </trkpt>
      <trkpt lat="50.31382" lon="3.83052">
        <ele>144</ele>
        <time>2012-07-06T08:22:22+02:00</time>
      </trkpt>
      <trkpt lat="50.31378" lon="3.83038">
        <ele>144</ele>
        <time>2012-07-06T08:22:29+02:00</time>
      </trkpt>
      <trkpt lat="50.31373" lon="3.83026">
        <ele>144</ele>
        <time>2012-07-06T08:22:35+02:00</time>
      </trkpt>
      <trkpt lat="50.31368" lon="3.83012">
        <ele>144</ele>
        <time>2012-07-06T08:22:44+02:00</time>
      </trkpt>
      <trkpt lat="50.31361" lon="3.83001">
        <ele>145</ele>
        <time>2012-07-06T08:22:50+02:00</time>
      </trkpt>
      <trkpt lat="50.31357" lon="3.82986">
        <ele>145</ele>
        <time>2012-07-06T08:22:59+02:00</time>
      </trkpt>
      <trkpt lat="50.31355" lon="3.8297">
        <ele>145</ele>
        <time>2012-07-06T08:23:05+02:00</time>
      </trkpt>
      <trkpt lat="50.31349" lon="3.82961">
        <ele>145</ele>
        <time>2012-07-06T08:23:12+02:00</time>
      </trkpt>
      <trkpt lat="50.31345" lon="3.82948">
        <ele>145</ele>
        <time>2012-07-06T08:23:20+02:00</time>
      </trkpt>
      <trkpt lat="50.31342" lon="3.82934">
        <ele>145</ele>
        <time>2012-07-06T08:23:27+02:00</time>
      </trkpt>
      <trkpt lat="50.31339" lon="3.82918">
        <ele>145</ele>
        <time>2012-07-06T08:23:36+02:00</time>
      </trkpt>
      <trkpt lat="50.31334" lon="3.82905">
        <ele>145</ele>
        <time>2012-07-06T08:23:44+02:00</time>
      </trkpt>
      <trkpt lat="50.31329" lon="3.82891">
        <ele>145</ele>
        <time>2012-07-06T08:23:51+02:00</time>
      </trkpt>
      <trkpt lat="50.31325" lon="3.82878">
        <ele>146</ele>
        <time>2012-07-06T08:23:58+02:00</time>
      </trkpt>
      <trkpt lat="50.3132" lon="3.82861">
        <ele>146</ele>
        <time>2012-07-06T08:24:07+02:00</time>
      </trkpt>
      <trkpt lat="50.31316" lon="3.82849">
        <ele>146</ele>
        <time>2012-07-06T08:24:14+02:00</time>
      </trkpt>
      <trkpt lat="50.31312" lon="3.82836">
        <ele>146</ele>
        <time>2012-07-06T08:24:22+02:00</time>
      </trkpt>
      <trkpt lat="50.31308" lon="3.82821">
        <ele>146</ele>
        <time>2012-07-06T08:24:31+02:00</time>
      </trkpt>
      <trkpt lat="50.31304" lon="3.82806">
        <ele>146</ele>
        <time>2012-07-06T08:24:40+02:00</time>
      </trkpt>
      <trkpt lat="50.313" lon="3.82792">
        <ele>146</ele>
        <time>2012-07-06T08:24:51+02:00</time>
      </trkpt>
      <trkpt lat="50.31297" lon="3.82777">
        <ele>147</ele>
        <time>2012-07-06T08:24:59+02:00</time>
      </trkpt>
      <trkpt lat="50.31293" lon="3.82761">
        <ele>147</ele>
        <time>2012-07-06T08:25:06+02:00</time>
      </trkpt>
      <trkpt lat="50.31287" lon="3.8275">
        <ele>146</ele>
        <time>2012-07-06T08:25:14+02:00</time>
      </trkpt>
      <trkpt lat="50.3128" lon="3.82739">
        <ele>147</ele>
        <time>2012-07-06T08:25:21+02:00</time>
      </trkpt>
      <trkpt lat="50.31273" lon="3.82729">
        <ele>147</ele>
        <time>2012-07-06T08:25:29+02:00</time>
      </trkpt>
      <trkpt lat="50.31265" lon="3.82718">
        <ele>147</ele>
        <time>2012-07-06T08:25:36+02:00</time>
      </trkpt>
      <trkpt lat="50.31258" lon="3.82708">
        <ele>147</ele>
        <time>2012-07-06T08:25:44+02:00</time>
      </trkpt>
      <trkpt lat="50.31252" lon="3.82697">
        <ele>147</ele>
        <time>2012-07-06T08:25:50+02:00</time>
      </trkpt>
      <trkpt lat="50.31244" lon="3.82685">
        <ele>148</ele>
        <time>2012-07-06T08:25:59+02:00</time>
      </trkpt>
      <trkpt lat="50.31237" lon="3.82673">
        <ele>148</ele>
        <time>2012-07-06T08:26:06+02:00</time>
      </trkpt>
      <trkpt lat="50.31231" lon="3.82663">
        <ele>148</ele>
        <time>2012-07-06T08:26:14+02:00</time>
      </trkpt>
      <trkpt lat="50.31223" lon="3.82651">
        <ele>148</ele>
        <time>2012-07-06T08:26:21+02:00</time>
      </trkpt>
      <trkpt lat="50.31216" lon="3.82643">
        <ele>148</ele>
        <time>2012-07-06T08:26:27+02:00</time>
      </trkpt>
      <trkpt lat="50.31209" lon="3.82631">
        <ele>148</ele>
        <time>2012-07-06T08:26:36+02:00</time>
      </trkpt>
      <trkpt lat="50.31202" lon="3.82621">
        <ele>148</ele>
        <time>2012-07-06T08:26:42+02:00</time>
      </trkpt>
      <trkpt lat="50.31195" lon="3.82608">
        <ele>148</ele>
        <time>2012-07-06T08:26:51+02:00</time>
      </trkpt>
      <trkpt lat="50.31189" lon="3.82596">
        <ele>149</ele>
        <time>2012-07-06T08:26:58+02:00</time>
      </trkpt>
      <trkpt lat="50.31182" lon="3.82584">
        <ele>149</ele>
        <time>2012-07-06T08:27:07+02:00</time>
      </trkpt>
      <trkpt lat="50.31175" lon="3.82571">
        <ele>149</ele>
        <time>2012-07-06T08:27:14+02:00</time>
      </trkpt>
      <trkpt lat="50.31168" lon="3.8256">
        <ele>149</ele>
        <time>2012-07-06T08:27:22+02:00</time>
      </trkpt>
      <trkpt lat="50.3116" lon="3.8255">
        <ele>149</ele>
        <time>2012-07-06T08:27:29+02:00</time>
      </trkpt>
      <trkpt lat="50.31154" lon="3.8254">
        <ele>149</ele>
        <time>2012-07-06T08:27:35+02:00</time>
      </trkpt>
      <trkpt lat="50.31147" lon="3.82529">
        <ele>149</ele>
        <time>2012-07-06T08:27:43+02:00</time>
      </trkpt>
      <trkpt lat="50.31142" lon="3.82519">
        <ele>149</ele>
        <time>2012-07-06T08:27:49+02:00</time>
      </trkpt>
      <trkpt lat="50.31136" lon="3.8251">
        <ele>149</ele>
        <time>2012-07-06T08:27:57+02:00</time>
      </trkpt>
      <trkpt lat="50.31128" lon="3.82498">
        <ele>149</ele>
        <time>2012-07-06T08:28:05+02:00</time>
      </trkpt>
      <trkpt lat="50.31121" lon="3.82487">
        <ele>149</ele>
        <time>2012-07-06T08:28:11+02:00</time>
      </trkpt>
      <trkpt lat="50.31115" lon="3.82476">
        <ele>149</ele>
        <time>2012-07-06T08:28:20+02:00</time>
      </trkpt>
      <trkpt lat="50.31106" lon="3.82465">
        <ele>149</ele>
        <time>2012-07-06T08:28:27+02:00</time>
      </trkpt>
      <trkpt lat="50.31099" lon="3.82456">
        <ele>150</ele>
        <time>2012-07-06T08:28:33+02:00</time>
      </trkpt>
      <trkpt lat="50.31092" lon="3.82446">
        <ele>150</ele>
        <time>2012-07-06T08:28:42+02:00</time>
      </trkpt>
      <trkpt lat="50.31085" lon="3.82435">
        <ele>150</ele>
        <time>2012-07-06T08:28:49+02:00</time>
      </trkpt>
      <trkpt lat="50.31077" lon="3.82424">
        <ele>150</ele>
        <time>2012-07-06T08:28:58+02:00</time>
      </trkpt>
      <trkpt lat="50.31069" lon="3.82412">
        <ele>150</ele>
        <time>2012-07-06T08:29:06+02:00</time>
      </trkpt>
      <trkpt lat="50.31062" lon="3.82403">
        <ele>150</ele>
        <time>2012-07-06T08:29:13+02:00</time>
      </trkpt>
      <trkpt lat="50.31054" lon="3.82392">
        <ele>149</ele>
        <time>2012-07-06T08:29:22+02:00</time>
      </trkpt>
      <trkpt lat="50.31046" lon="3.8238">
        <ele>149</ele>
        <time>2012-07-06T08:29:29+02:00</time>
      </trkpt>
      <trkpt lat="50.31038" lon="3.8237">
        <ele>149</ele>
        <time>2012-07-06T08:29:38+02:00</time>
      </trkpt>
      <trkpt lat="50.31031" lon="3.82361">
        <ele>149</ele>
        <time>2012-07-06T08:29:44+02:00</time>
      </trkpt>
      <trkpt lat="50.31024" lon="3.82352">
        <ele>149</ele>
        <time>2012-07-06T08:29:52+02:00</time>
      </trkpt>
      <trkpt lat="50.31016" lon="3.82342">
        <ele>149</ele>
        <time>2012-07-06T08:29:59+02:00</time>
      </trkpt>
      <trkpt lat="50.31009" lon="3.82333">
        <ele>149</ele>
        <time>2012-07-06T08:30:06+02:00</time>
      </trkpt>
      <trkpt lat="50.31001" lon="3.82322">
        <ele>149</ele>
        <time>2012-07-06T08:30:15+02:00</time>
      </trkpt>
      <trkpt lat="50.30993" lon="3.82313">
        <ele>149</ele>
        <time>2012-07-06T08:30:22+02:00</time>
      </trkpt>
      <trkpt lat="50.30985" lon="3.82302">
        <ele>149</ele>
        <time>2012-07-06T08:30:31+02:00</time>
      </trkpt>
      <trkpt lat="50.30977" lon="3.82291">
        <ele>148</ele>
        <time>2012-07-06T08:30:38+02:00</time>
      </trkpt>
      <trkpt lat="50.30969" lon="3.82283">
        <ele>148</ele>
        <time>2012-07-06T08:30:45+02:00</time>
      </trkpt>
      <trkpt lat="50.30961" lon="3.82272">
        <ele>148</ele>
        <time>2012-07-06T08:30:56+02:00</time>
      </trkpt>
      <trkpt lat="50.30953" lon="3.82264">
        <ele>148</ele>
        <time>2012-07-06T08:31:04+02:00</time>
      </trkpt>
      <trkpt lat="50.30944" lon="3.82255">
        <ele>148</ele>
        <time>2012-07-06T08:31:12+02:00</time>
      </trkpt>
      <trkpt lat="50.30936" lon="3.82245">
        <ele>148</ele>
        <time>2012-07-06T08:31:19+02:00</time>
      </trkpt>
      <trkpt lat="50.30929" lon="3.82237">
        <ele>148</ele>
        <time>2012-07-06T08:31:26+02:00</time>
      </trkpt>
      <trkpt lat="50.30919" lon="3.82225">
        <ele>148</ele>
        <time>2012-07-06T08:31:36+02:00</time>
      </trkpt>
      <trkpt lat="50.30912" lon="3.82215">
        <ele>148</ele>
        <time>2012-07-06T08:31:43+02:00</time>
      </trkpt>
      <trkpt lat="50.30904" lon="3.82206">
        <ele>148</ele>
        <time>2012-07-06T08:31:49+02:00</time>
      </trkpt>
      <trkpt lat="50.30896" lon="3.82192">
        <ele>148</ele>
        <time>2012-07-06T08:32:00+02:00</time>
      </trkpt>
      <trkpt lat="50.30888" lon="3.8218">
        <ele>147</ele>
        <time>2012-07-06T08:32:08+02:00</time>
      </trkpt>
      <trkpt lat="50.30881" lon="3.82166">
        <ele>147</ele>
        <time>2012-07-06T08:32:17+02:00</time>
      </trkpt>
      <trkpt lat="50.30874" lon="3.82154">
        <ele>147</ele>
        <time>2012-07-06T08:32:24+02:00</time>
      </trkpt>
      <trkpt lat="50.30867" lon="3.82141">
        <ele>146</ele>
        <time>2012-07-06T08:32:31+02:00</time>
      </trkpt>
      <trkpt lat="50.30861" lon="3.82127">
        <ele>146</ele>
        <time>2012-07-06T08:32:41+02:00</time>
      </trkpt>
      <trkpt lat="50.30853" lon="3.82116">
        <ele>145</ele>
        <time>2012-07-06T08:32:48+02:00</time>
      </trkpt>
      <trkpt lat="50.30848" lon="3.82106">
        <ele>145</ele>
        <time>2012-07-06T08:32:55+02:00</time>
      </trkpt>
      <trkpt lat="50.30841" lon="3.82092">
        <ele>144</ele>
        <time>2012-07-06T08:33:04+02:00</time>
      </trkpt>
      <trkpt lat="50.30834" lon="3.82079">
        <ele>144</ele>
        <time>2012-07-06T08:33:11+02:00</time>
      </trkpt>
      <trkpt lat="50.30827" lon="3.82064">
        <ele>144</ele>
        <time>2012-07-06T08:33:20+02:00</time>
      </trkpt>
      <trkpt lat="50.30821" lon="3.82054">
        <ele>144</ele>
        <time>2012-07-06T08:33:27+02:00</time>
      </trkpt>
      <trkpt lat="50.30815" lon="3.82042">
        <ele>144</ele>
        <time>2012-07-06T08:33:36+02:00</time>
      </trkpt>
      <trkpt lat="50.30809" lon="3.82031">
        <ele>144</ele>
        <time>2012-07-06T08:33:43+02:00</time>
      </trkpt>
      <trkpt lat="50.30804" lon="3.82019">
        <ele>143</ele>
        <time>2012-07-06T08:33:51+02:00</time>
      </trkpt>
      <trkpt lat="50.30801" lon="3.82005">
        <ele>143</ele>
        <time>2012-07-06T08:33:59+02:00</time>
      </trkpt>
      <trkpt lat="50.30797" lon="3.81989">
        <ele>143</ele>
        <time>2012-07-06T08:34:06+02:00</time>
      </trkpt>
      <trkpt lat="50.30794" lon="3.81974">
        <ele>143</ele>
        <time>2012-07-06T08:34:15+02:00</time>
      </trkpt>
      <trkpt lat="50.30791" lon="3.81959">
        <ele>143</ele>
        <time>2012-07-06T08:34:22+02:00</time>
      </trkpt>
      <trkpt lat="50.30787" lon="3.81944">
        <ele>143</ele>
        <time>2012-07-06T08:34:30+02:00</time>
      </trkpt>
      <trkpt lat="50.30783" lon="3.81929">
        <ele>143</ele>
        <time>2012-07-06T08:34:38+02:00</time>
      </trkpt>
      <trkpt lat="50.30781" lon="3.81914">
        <ele>143</ele>
        <time>2012-07-06T08:34:45+02:00</time>
      </trkpt>
      <trkpt lat="50.30777" lon="3.81898">
        <ele>143</ele>
        <time>2012-07-06T08:34:55+02:00</time>
      </trkpt>
      <trkpt lat="50.30772" lon="3.81883">
        <ele>143</ele>
        <time>2012-07-06T08:35:02+02:00</time>
      </trkpt>
      <trkpt lat="50.30767" lon="3.81867">
        <ele>143</ele>
        <time>2012-07-06T08:35:11+02:00</time>
      </trkpt>
      <trkpt lat="50.30762" lon="3.81852">
        <ele>143</ele>
        <time>2012-07-06T08:35:19+02:00</time>
      </trkpt>
      <trkpt lat="50.30758" lon="3.81837">
        <ele>143</ele>
        <time>2012-07-06T08:35:28+02:00</time>
      </trkpt>
      <trkpt lat="50.30753" lon="3.81821">
        <ele>143</ele>
        <time>2012-07-06T08:35:36+02:00</time>
      </trkpt>
      <trkpt lat="50.3075" lon="3.81806">
        <ele>143</ele>
        <time>2012-07-06T08:35:43+02:00</time>
      </trkpt>
      <trkpt lat="50.30747" lon="3.81792">
        <ele>144</ele>
        <time>2012-07-06T08:35:51+02:00</time>
      </trkpt>
      <trkpt lat="50.30746" lon="3.81776">
        <ele>144</ele>
        <time>2012-07-06T08:35:58+02:00</time>
      </trkpt>
      <trkpt lat="50.30742" lon="3.81762">
        <ele>144</ele>
        <time>2012-07-06T08:36:06+02:00</time>
      </trkpt>
      <trkpt lat="50.3074" lon="3.81746">
        <ele>144</ele>
        <time>2012-07-06T08:36:13+02:00</time>
      </trkpt>
      <trkpt lat="50.30737" lon="3.8173">
        <ele>145</ele>
        <time>2012-07-06T08:36:22+02:00</time>
      </trkpt>
      <trkpt lat="50.30732" lon="3.81705">
        <ele>146</ele>
        <time>2012-07-06T08:36:31+02:00</time>
      </trkpt>
      <trkpt lat="50.30736" lon="3.81697">
        <ele>146</ele>
        <time>2012-07-06T08:38:15+02:00</time>
      </trkpt>
      <trkpt lat="50.30742" lon="3.8169">
        <ele>146</ele>
        <time>2012-07-06T08:38:23+02:00</time>
      </trkpt>
      <trkpt lat="50.30748" lon="3.81678">
        <ele>146</ele>
        <time>2012-07-06T08:38:30+02:00</time>
      </trkpt>
      <trkpt lat="50.30754" lon="3.81666">
        <ele>146</ele>
        <time>2012-07-06T08:38:38+02:00</time>
      </trkpt>
      <trkpt lat="50.30761" lon="3.81655">
        <ele>146</ele>
        <time>2012-07-06T08:38:45+02:00</time>
      </trkpt>
      <trkpt lat="50.30766" lon="3.81643">
        <ele>146</ele>
        <time>2012-07-06T08:38:53+02:00</time>
      </trkpt>
      <trkpt lat="50.30773" lon="3.8163">
        <ele>146</ele>
        <time>2012-07-06T08:39:01+02:00</time>
      </trkpt>
      <trkpt lat="50.3078" lon="3.8162">
        <ele>145</ele>
        <time>2012-07-06T08:39:07+02:00</time>
      </trkpt>
      <trkpt lat="50.30787" lon="3.81608">
        <ele>145</ele>
        <time>2012-07-06T08:39:16+02:00</time>
      </trkpt>
      <trkpt lat="50.30794" lon="3.81596">
        <ele>145</ele>
        <time>2012-07-06T08:39:23+02:00</time>
      </trkpt>
      <trkpt lat="50.30801" lon="3.81585">
        <ele>145</ele>
        <time>2012-07-06T08:39:29+02:00</time>
      </trkpt>
      <trkpt lat="50.30807" lon="3.81573">
        <ele>145</ele>
        <time>2012-07-06T08:39:38+02:00</time>
      </trkpt>
      <trkpt lat="50.30813" lon="3.81561">
        <ele>145</ele>
        <time>2012-07-06T08:39:45+02:00</time>
      </trkpt>
      <trkpt lat="50.30821" lon="3.81552">
        <ele>144</ele>
        <time>2012-07-06T08:39:51+02:00</time>
      </trkpt>
      <trkpt lat="50.30827" lon="3.8154">
        <ele>144</ele>
        <time>2012-07-06T08:39:59+02:00</time>
      </trkpt>
      <trkpt lat="50.30833" lon="3.81529">
        <ele>144</ele>
        <time>2012-07-06T08:40:06+02:00</time>
      </trkpt>
      <trkpt lat="50.3084" lon="3.81517">
        <ele>144</ele>
        <time>2012-07-06T08:40:13+02:00</time>
      </trkpt>
      <trkpt lat="50.30845" lon="3.81504">
        <ele>143</ele>
        <time>2012-07-06T08:40:20+02:00</time>
      </trkpt>
      <trkpt lat="50.30852" lon="3.81494">
        <ele>143</ele>
        <time>2012-07-06T08:40:29+02:00</time>
      </trkpt>
      <trkpt lat="50.30859" lon="3.81481">
        <ele>142</ele>
        <time>2012-07-06T08:40:36+02:00</time>
      </trkpt>
      <trkpt lat="50.30865" lon="3.8147">
        <ele>142</ele>
        <time>2012-07-06T08:40:42+02:00</time>
      </trkpt>
      <trkpt lat="50.30871" lon="3.81458">
        <ele>141</ele>
        <time>2012-07-06T08:40:50+02:00</time>
      </trkpt>
      <trkpt lat="50.30878" lon="3.81446">
        <ele>140</ele>
        <time>2012-07-06T08:40:58+02:00</time>
      </trkpt>
      <trkpt lat="50.30884" lon="3.81434">
        <ele>140</ele>
        <time>2012-07-06T08:41:05+02:00</time>
      </trkpt>
      <trkpt lat="50.30891" lon="3.81422">
        <ele>139</ele>
        <time>2012-07-06T08:41:12+02:00</time>
      </trkpt>
      <trkpt lat="50.30898" lon="3.8141">
        <ele>139</ele>
        <time>2012-07-06T08:41:21+02:00</time>
      </trkpt>
      <trkpt lat="50.30905" lon="3.81397">
        <ele>139</ele>
        <time>2012-07-06T08:41:28+02:00</time>
      </trkpt>
      <trkpt lat="50.30911" lon="3.81387">
        <ele>139</ele>
        <time>2012-07-06T08:41:34+02:00</time>
      </trkpt>
      <trkpt lat="50.30917" lon="3.81375">
        <ele>139</ele>
        <time>2012-07-06T08:41:43+02:00</time>
      </trkpt>
      <trkpt lat="50.30924" lon="3.81363">
        <ele>139</ele>
        <time>2012-07-06T08:41:50+02:00</time>
      </trkpt>
      <trkpt lat="50.3093" lon="3.81352">
        <ele>139</ele>
        <time>2012-07-06T08:41:56+02:00</time>
      </trkpt>
      <trkpt lat="50.30936" lon="3.81341">
        <ele>139</ele>
        <time>2012-07-06T08:42:05+02:00</time>
      </trkpt>
      <trkpt lat="50.30943" lon="3.8133">
        <ele>139</ele>
        <time>2012-07-06T08:42:12+02:00</time>
      </trkpt>
      <trkpt lat="50.3095" lon="3.8132">
        <ele>140</ele>
        <time>2012-07-06T08:42:18+02:00</time>
      </trkpt>
      <trkpt lat="50.30958" lon="3.81309">
        <ele>140</ele>
        <time>2012-07-06T08:42:26+02:00</time>
      </trkpt>
      <trkpt lat="50.30965" lon="3.81298">
        <ele>140</ele>
        <time>2012-07-06T08:42:33+02:00</time>
      </trkpt>
      <trkpt lat="50.30972" lon="3.81289">
        <ele>140</ele>
        <time>2012-07-06T08:42:39+02:00</time>
      </trkpt>
      <trkpt lat="50.3098" lon="3.81278">
        <ele>140</ele>
        <time>2012-07-06T08:42:48+02:00</time>
      </trkpt>
      <trkpt lat="50.30987" lon="3.81267">
        <ele>140</ele>
        <time>2012-07-06T08:42:55+02:00</time>
      </trkpt>
      <trkpt lat="50.30994" lon="3.81252">
        <ele>140</ele>
        <time>2012-07-06T08:43:01+02:00</time>
      </trkpt>
      <trkpt lat="50.31003" lon="3.81249">
        <ele>140</ele>
        <time>2012-07-06T08:43:09+02:00</time>
      </trkpt>
      <trkpt lat="50.31013" lon="3.81254">
        <ele>140</ele>
        <time>2012-07-06T08:43:16+02:00</time>
      </trkpt>
      <trkpt lat="50.31022" lon="3.81259">
        <ele>139</ele>
        <time>2012-07-06T08:43:22+02:00</time>
      </trkpt>
      <trkpt lat="50.31031" lon="3.81265">
        <ele>139</ele>
        <time>2012-07-06T08:43:31+02:00</time>
      </trkpt>
      <trkpt lat="50.3104" lon="3.81271">
        <ele>139</ele>
        <time>2012-07-06T08:43:38+02:00</time>
      </trkpt>
      <trkpt lat="50.3105" lon="3.81276">
        <ele>139</ele>
        <time>2012-07-06T08:43:44+02:00</time>
      </trkpt>
      <trkpt lat="50.31059" lon="3.8128">
        <ele>139</ele>
        <time>2012-07-06T08:43:50+02:00</time>
      </trkpt>
      <trkpt lat="50.31067" lon="3.81285">
        <ele>138</ele>
        <time>2012-07-06T08:43:58+02:00</time>
      </trkpt>
      <trkpt lat="50.31075" lon="3.8129">
        <ele>138</ele>
        <time>2012-07-06T08:44:04+02:00</time>
      </trkpt>
      <trkpt lat="50.31085" lon="3.81287">
        <ele>138</ele>
        <time>2012-07-06T08:44:10+02:00</time>
      </trkpt>
      <trkpt lat="50.31089" lon="3.81276">
        <ele>138</ele>
        <time>2012-07-06T08:44:18+02:00</time>
      </trkpt>
      <trkpt lat="50.31091" lon="3.8126">
        <ele>138</ele>
        <time>2012-07-06T08:44:25+02:00</time>
      </trkpt>
      <trkpt lat="50.31093" lon="3.81246">
        <ele>138</ele>
        <time>2012-07-06T08:44:31+02:00</time>
      </trkpt>
      <trkpt lat="50.31094" lon="3.81232">
        <ele>138</ele>
        <time>2012-07-06T08:44:38+02:00</time>
      </trkpt>
      <trkpt lat="50.31097" lon="3.81217">
        <ele>138</ele>
        <time>2012-07-06T08:44:45+02:00</time>
      </trkpt>
      <trkpt lat="50.31099" lon="3.81201">
        <ele>139</ele>
        <time>2012-07-06T08:44:51+02:00</time>
      </trkpt>
      <trkpt lat="50.31101" lon="3.81187">
        <ele>139</ele>
        <time>2012-07-06T08:44:59+02:00</time>
      </trkpt>
      <trkpt lat="50.31103" lon="3.81172">
        <ele>139</ele>
        <time>2012-07-06T08:45:06+02:00</time>
      </trkpt>
      <trkpt lat="50.31105" lon="3.81158">
        <ele>139</ele>
        <time>2012-07-06T08:45:12+02:00</time>
      </trkpt>
      <trkpt lat="50.31108" lon="3.81143">
        <ele>139</ele>
        <time>2012-07-06T08:45:20+02:00</time>
      </trkpt>
      <trkpt lat="50.31111" lon="3.81129">
        <ele>139</ele>
        <time>2012-07-06T08:45:27+02:00</time>
      </trkpt>
      <trkpt lat="50.31113" lon="3.81115">
        <ele>139</ele>
        <time>2012-07-06T08:45:33+02:00</time>
      </trkpt>
      <trkpt lat="50.31115" lon="3.811">
        <ele>139</ele>
        <time>2012-07-06T08:45:41+02:00</time>
      </trkpt>
      <trkpt lat="50.31118" lon="3.81085">
        <ele>139</ele>
        <time>2012-07-06T08:45:48+02:00</time>
      </trkpt>
      <trkpt lat="50.3112" lon="3.81071">
        <ele>139</ele>
        <time>2012-07-06T08:45:54+02:00</time>
      </trkpt>
      <trkpt lat="50.31123" lon="3.81057">
        <ele>139</ele>
        <time>2012-07-06T08:46:01+02:00</time>
      </trkpt>
      <trkpt lat="50.31124" lon="3.81041">
        <ele>138</ele>
        <time>2012-07-06T08:46:10+02:00</time>
      </trkpt>
      <trkpt lat="50.31127" lon="3.81025">
        <ele>138</ele>
        <time>2012-07-06T08:46:17+02:00</time>
      </trkpt>
      <trkpt lat="50.3113" lon="3.81011">
        <ele>138</ele>
        <time>2012-07-06T08:46:23+02:00</time>
      </trkpt>
      <trkpt lat="50.31133" lon="3.80997">
        <ele>137</ele>
        <time>2012-07-06T08:46:32+02:00</time>
      </trkpt>
      <trkpt lat="50.31135" lon="3.80982">
        <ele>137</ele>
        <time>2012-07-06T08:46:39+02:00</time>
      </trkpt>
      <trkpt lat="50.31137" lon="3.80968">
        <ele>136</ele>
        <time>2012-07-06T08:46:45+02:00</time>
      </trkpt>
      <trkpt lat="50.31139" lon="3.80955">
        <ele>136</ele>
        <time>2012-07-06T08:46:51+02:00</time>
      </trkpt>
      <trkpt lat="50.31142" lon="3.80938">
        <ele>136</ele>
        <time>2012-07-06T08:47:02+02:00</time>
      </trkpt>
      <trkpt lat="50.31144" lon="3.80923">
        <ele>135</ele>
        <time>2012-07-06T08:47:08+02:00</time>
      </trkpt>
      <trkpt lat="50.31147" lon="3.8091">
        <ele>135</ele>
        <time>2012-07-06T08:47:14+02:00</time>
      </trkpt>
      <trkpt lat="50.31149" lon="3.80896">
        <ele>135</ele>
        <time>2012-07-06T08:47:20+02:00</time>
      </trkpt>
      <trkpt lat="50.31152" lon="3.80881">
        <ele>135</ele>
        <time>2012-07-06T08:47:30+02:00</time>
      </trkpt>
      <trkpt lat="50.31153" lon="3.80868">
        <ele>136</ele>
        <time>2012-07-06T08:47:38+02:00</time>
      </trkpt>
      <trkpt lat="50.31148" lon="3.80856">
        <ele>136</ele>
        <time>2012-07-06T08:47:59+02:00</time>
      </trkpt>
      <trkpt lat="50.31142" lon="3.80842">
        <ele>136</ele>
        <time>2012-07-06T08:48:07+02:00</time>
      </trkpt>
      <trkpt lat="50.31131" lon="3.80826">
        <ele>136</ele>
        <time>2012-07-06T08:48:16+02:00</time>
      </trkpt>
      <trkpt lat="50.31135" lon="3.80807">
        <ele>136</ele>
        <time>2012-07-06T08:48:23+02:00</time>
      </trkpt>
      <trkpt lat="50.31139" lon="3.80794">
        <ele>136</ele>
        <time>2012-07-06T08:48:30+02:00</time>
      </trkpt>
      <trkpt lat="50.31142" lon="3.8078">
        <ele>136</ele>
        <time>2012-07-06T08:48:37+02:00</time>
      </trkpt>
      <trkpt lat="50.31145" lon="3.80765">
        <ele>136</ele>
        <time>2012-07-06T08:48:44+02:00</time>
      </trkpt>
      <trkpt lat="50.31149" lon="3.80752">
        <ele>136</ele>
        <time>2012-07-06T08:48:53+02:00</time>
      </trkpt>
      <trkpt lat="50.31152" lon="3.80736">
        <ele>136</ele>
        <time>2012-07-06T08:49:00+02:00</time>
      </trkpt>
      <trkpt lat="50.31155" lon="3.80722">
        <ele>136</ele>
        <time>2012-07-06T08:49:06+02:00</time>
      </trkpt>
      <trkpt lat="50.31157" lon="3.80708">
        <ele>136</ele>
        <time>2012-07-06T08:49:13+02:00</time>
      </trkpt>
      <trkpt lat="50.3116" lon="3.80693">
        <ele>135</ele>
        <time>2012-07-06T08:49:21+02:00</time>
      </trkpt>
      <trkpt lat="50.31162" lon="3.80679">
        <ele>135</ele>
        <time>2012-07-06T08:49:27+02:00</time>
      </trkpt>
      <trkpt lat="50.31165" lon="3.80665">
        <ele>135</ele>
        <time>2012-07-06T08:49:33+02:00</time>
      </trkpt>
      <trkpt lat="50.31168" lon="3.80652">
        <ele>135</ele>
        <time>2012-07-06T08:49:41+02:00</time>
      </trkpt>
      <trkpt lat="50.31171" lon="3.80637">
        <ele>135</ele>
        <time>2012-07-06T08:49:48+02:00</time>
      </trkpt>
      <trkpt lat="50.31175" lon="3.80622">
        <ele>135</ele>
        <time>2012-07-06T08:49:55+02:00</time>
      </trkpt>
      <trkpt lat="50.31178" lon="3.8061">
        <ele>135</ele>
        <time>2012-07-06T08:50:01+02:00</time>
      </trkpt>
      <trkpt lat="50.31181" lon="3.80595">
        <ele>135</ele>
        <time>2012-07-06T08:50:10+02:00</time>
      </trkpt>
      <trkpt lat="50.31185" lon="3.80579">
        <ele>134</ele>
        <time>2012-07-06T08:50:17+02:00</time>
      </trkpt>
      <trkpt lat="50.31188" lon="3.80564">
        <ele>134</ele>
        <time>2012-07-06T08:50:24+02:00</time>
      </trkpt>
      <trkpt lat="50.31191" lon="3.80551">
        <ele>134</ele>
        <time>2012-07-06T08:50:30+02:00</time>
      </trkpt>
      <trkpt lat="50.31194" lon="3.80536">
        <ele>133</ele>
        <time>2012-07-06T08:50:38+02:00</time>
      </trkpt>
      <trkpt lat="50.31198" lon="3.8052">
        <ele>133</ele>
        <time>2012-07-06T08:50:47+02:00</time>
      </trkpt>
      <trkpt lat="50.312" lon="3.80505">
        <ele>132</ele>
        <time>2012-07-06T08:50:53+02:00</time>
      </trkpt>
      <trkpt lat="50.31203" lon="3.80491">
        <ele>132</ele>
        <time>2012-07-06T08:50:59+02:00</time>
      </trkpt>
      <trkpt lat="50.31207" lon="3.80477">
        <ele>132</ele>
        <time>2012-07-06T08:51:06+02:00</time>
      </trkpt>
      <trkpt lat="50.3121" lon="3.80462">
        <ele>131</ele>
        <time>2012-07-06T08:51:15+02:00</time>
      </trkpt>
      <trkpt lat="50.31215" lon="3.80448">
        <ele>131</ele>
        <time>2012-07-06T08:51:22+02:00</time>
      </trkpt>
      <trkpt lat="50.31218" lon="3.80435">
        <ele>131</ele>
        <time>2012-07-06T08:51:28+02:00</time>
      </trkpt>
      <trkpt lat="50.31222" lon="3.80422">
        <ele>130</ele>
        <time>2012-07-06T08:51:35+02:00</time>
      </trkpt>
      <trkpt lat="50.31226" lon="3.80408">
        <ele>130</ele>
        <time>2012-07-06T08:51:43+02:00</time>
      </trkpt>
      <trkpt lat="50.31231" lon="3.80393">
        <ele>130</ele>
        <time>2012-07-06T08:51:50+02:00</time>
      </trkpt>
      <trkpt lat="50.31234" lon="3.80379">
        <ele>130</ele>
        <time>2012-07-06T08:51:57+02:00</time>
      </trkpt>
      <trkpt lat="50.31238" lon="3.80365">
        <ele>129</ele>
        <time>2012-07-06T08:52:06+02:00</time>
      </trkpt>
      <trkpt lat="50.31243" lon="3.8035">
        <ele>129</ele>
        <time>2012-07-06T08:52:13+02:00</time>
      </trkpt>
      <trkpt lat="50.31248" lon="3.80338">
        <ele>129</ele>
        <time>2012-07-06T08:52:19+02:00</time>
      </trkpt>
      <trkpt lat="50.31252" lon="3.80324">
        <ele>129</ele>
        <time>2012-07-06T08:52:28+02:00</time>
      </trkpt>
      <trkpt lat="50.31257" lon="3.80311">
        <ele>128</ele>
        <time>2012-07-06T08:52:35+02:00</time>
      </trkpt>
      <trkpt lat="50.31262" lon="3.80297">
        <ele>128</ele>
        <time>2012-07-06T08:52:42+02:00</time>
      </trkpt>
      <trkpt lat="50.31266" lon="3.80284">
        <ele>127</ele>
        <time>2012-07-06T08:52:51+02:00</time>
      </trkpt>
      <trkpt lat="50.3127" lon="3.80267">
        <ele>127</ele>
        <time>2012-07-06T08:52:58+02:00</time>
      </trkpt>
      <trkpt lat="50.31274" lon="3.80255">
        <ele>127</ele>
        <time>2012-07-06T08:53:07+02:00</time>
      </trkpt>
      <trkpt lat="50.31279" lon="3.80243">
        <ele>126</ele>
        <time>2012-07-06T08:53:15+02:00</time>
      </trkpt>
      <trkpt lat="50.31284" lon="3.80227">
        <ele>126</ele>
        <time>2012-07-06T08:53:24+02:00</time>
      </trkpt>
      <trkpt lat="50.31289" lon="3.8021">
        <ele>125</ele>
        <time>2012-07-06T08:53:39+02:00</time>
      </trkpt>
      <trkpt lat="50.31282" lon="3.8021">
        <ele>125</ele>
        <time>2012-07-06T08:54:37+02:00</time>
      </trkpt>
      <trkpt lat="50.31271" lon="3.80206">
        <ele>125</ele>
        <time>2012-07-06T08:54:44+02:00</time>
      </trkpt>
      <trkpt lat="50.3126" lon="3.80205">
        <ele>126</ele>
        <time>2012-07-06T08:54:52+02:00</time>
      </trkpt>
      <trkpt lat="50.3125" lon="3.80204">
        <ele>126</ele>
        <time>2012-07-06T08:54:59+02:00</time>
      </trkpt>
      <trkpt lat="50.31241" lon="3.80203">
        <ele>126</ele>
        <time>2012-07-06T08:55:06+02:00</time>
      </trkpt>
      <trkpt lat="50.31231" lon="3.80203">
        <ele>127</ele>
        <time>2012-07-06T08:55:15+02:00</time>
      </trkpt>
      <trkpt lat="50.3122" lon="3.80201">
        <ele>127</ele>
        <time>2012-07-06T08:55:22+02:00</time>
      </trkpt>
      <trkpt lat="50.3121" lon="3.80201">
        <ele>128</ele>
        <time>2012-07-06T08:55:29+02:00</time>
      </trkpt>
      <trkpt lat="50.31199" lon="3.802">
        <ele>128</ele>
        <time>2012-07-06T08:55:38+02:00</time>
      </trkpt>
      <trkpt lat="50.31186" lon="3.80193">
        <ele>129</ele>
        <time>2012-07-06T08:55:46+02:00</time>
      </trkpt>
      <trkpt lat="50.31177" lon="3.80192">
        <ele>129</ele>
        <time>2012-07-06T08:55:53+02:00</time>
      </trkpt>
      <trkpt lat="50.31168" lon="3.80186">
        <ele>130</ele>
        <time>2012-07-06T08:56:03+02:00</time>
      </trkpt>
      <trkpt lat="50.31159" lon="3.80178">
        <ele>130</ele>
        <time>2012-07-06T08:56:14+02:00</time>
      </trkpt>
      <trkpt lat="50.31152" lon="3.80168">
        <ele>130</ele>
        <time>2012-07-06T08:56:23+02:00</time>
      </trkpt>
      <trkpt lat="50.3114" lon="3.80159">
        <ele>129</ele>
        <time>2012-07-06T08:56:34+02:00</time>
      </trkpt>
      <trkpt lat="50.3113" lon="3.80149">
        <ele>128</ele>
        <time>2012-07-06T08:56:43+02:00</time>
      </trkpt>
      <trkpt lat="50.3112" lon="3.80139">
        <ele>128</ele>
        <time>2012-07-06T08:56:51+02:00</time>
      </trkpt>
      <trkpt lat="50.31111" lon="3.8013">
        <ele>127</ele>
        <time>2012-07-06T08:57:00+02:00</time>
      </trkpt>
      <trkpt lat="50.31096" lon="3.80115">
        <ele>127</ele>
        <time>2012-07-06T08:57:10+02:00</time>
      </trkpt>
      <trkpt lat="50.31087" lon="3.80104">
        <ele>126</ele>
        <time>2012-07-06T08:57:20+02:00</time>
      </trkpt>
      <trkpt lat="50.31079" lon="3.80092">
        <ele>126</ele>
        <time>2012-07-06T08:57:26+02:00</time>
      </trkpt>
      <trkpt lat="50.31075" lon="3.80077">
        <ele>125</ele>
        <time>2012-07-06T08:57:32+02:00</time>
      </trkpt>
      <trkpt lat="50.31073" lon="3.80061">
        <ele>124</ele>
        <time>2012-07-06T08:57:39+02:00</time>
      </trkpt>
      <trkpt lat="50.3107" lon="3.8005">
        <ele>123</ele>
        <time>2012-07-06T08:57:49+02:00</time>
      </trkpt>
      <trkpt lat="50.31065" lon="3.80033">
        <ele>122</ele>
        <time>2012-07-06T08:57:56+02:00</time>
      </trkpt>
      <trkpt lat="50.31059" lon="3.80025">
        <ele>122</ele>
        <time>2012-07-06T08:58:03+02:00</time>
      </trkpt>
      <trkpt lat="50.31051" lon="3.80013">
        <ele>121</ele>
        <time>2012-07-06T08:58:09+02:00</time>
      </trkpt>
      <trkpt lat="50.31041" lon="3.80009">
        <ele>121</ele>
        <time>2012-07-06T08:58:18+02:00</time>
      </trkpt>
      <trkpt lat="50.3103" lon="3.80005">
        <ele>120</ele>
        <time>2012-07-06T08:58:25+02:00</time>
      </trkpt>
      <trkpt lat="50.3102" lon="3.80006">
        <ele>120</ele>
        <time>2012-07-06T08:58:31+02:00</time>
      </trkpt>
      <trkpt lat="50.31012" lon="3.80007">
        <ele>120</ele>
        <time>2012-07-06T08:58:39+02:00</time>
      </trkpt>
      <trkpt lat="50.31003" lon="3.80013">
        <ele>120</ele>
        <time>2012-07-06T08:58:46+02:00</time>
      </trkpt>
      <trkpt lat="50.30994" lon="3.80018">
        <ele>120</ele>
        <time>2012-07-06T08:58:52+02:00</time>
      </trkpt>
      <trkpt lat="50.30983" lon="3.80017">
        <ele>120</ele>
        <time>2012-07-06T08:59:01+02:00</time>
      </trkpt>
      <trkpt lat="50.30988" lon="3.80007">
        <ele>120</ele>
        <time>2012-07-06T08:59:10+02:00</time>
      </trkpt>
      <trkpt lat="50.30999" lon="3.80003">
        <ele>120</ele>
        <time>2012-07-06T08:59:17+02:00</time>
      </trkpt>
      <trkpt lat="50.31008" lon="3.79999">
        <ele>120</ele>
        <time>2012-07-06T08:59:24+02:00</time>
      </trkpt>
      <trkpt lat="50.31017" lon="3.79993">
        <ele>120</ele>
        <time>2012-07-06T08:59:32+02:00</time>
      </trkpt>
      <trkpt lat="50.31027" lon="3.79987">
        <ele>120</ele>
        <time>2012-07-06T08:59:39+02:00</time>
      </trkpt>
      <trkpt lat="50.31037" lon="3.79982">
        <ele>121</ele>
        <time>2012-07-06T08:59:47+02:00</time>
      </trkpt>
      <trkpt lat="50.31046" lon="3.79976">
        <ele>121</ele>
        <time>2012-07-06T08:59:54+02:00</time>
      </trkpt>
      <trkpt lat="50.31055" lon="3.7997">
        <ele>121</ele>
        <time>2012-07-06T09:00:02+02:00</time>
      </trkpt>
      <trkpt lat="50.31065" lon="3.79964">
        <ele>121</ele>
        <time>2012-07-06T09:00:10+02:00</time>
      </trkpt>
      <trkpt lat="50.31075" lon="3.79959">
        <ele>121</ele>
        <time>2012-07-06T09:00:18+02:00</time>
      </trkpt>
      <trkpt lat="50.31086" lon="3.79954">
        <ele>121</ele>
        <time>2012-07-06T09:00:28+02:00</time>
      </trkpt>
      <trkpt lat="50.31097" lon="3.79949">
        <ele>121</ele>
        <time>2012-07-06T09:00:36+02:00</time>
      </trkpt>
      <trkpt lat="50.31109" lon="3.79946">
        <ele>121</ele>
        <time>2012-07-06T09:00:45+02:00</time>
      </trkpt>
      <trkpt lat="50.31122" lon="3.79941">
        <ele>121</ele>
        <time>2012-07-06T09:00:54+02:00</time>
      </trkpt>
      <trkpt lat="50.31132" lon="3.79938">
        <ele>120</ele>
        <time>2012-07-06T09:01:01+02:00</time>
      </trkpt>
      <trkpt lat="50.31145" lon="3.79937">
        <ele>120</ele>
        <time>2012-07-06T09:01:13+02:00</time>
      </trkpt>
      <trkpt lat="50.31159" lon="3.79935">
        <ele>120</ele>
        <time>2012-07-06T09:01:24+02:00</time>
      </trkpt>
      <trkpt lat="50.31173" lon="3.79934">
        <ele>120</ele>
        <time>2012-07-06T09:01:34+02:00</time>
      </trkpt>
      <trkpt lat="50.31187" lon="3.79933">
        <ele>119</ele>
        <time>2012-07-06T09:01:44+02:00</time>
      </trkpt>
      <trkpt lat="50.31199" lon="3.79932">
        <ele>119</ele>
        <time>2012-07-06T09:01:54+02:00</time>
      </trkpt>
      <trkpt lat="50.3121" lon="3.79929">
        <ele>118</ele>
        <time>2012-07-06T09:02:03+02:00</time>
      </trkpt>
      <trkpt lat="50.31223" lon="3.79925">
        <ele>118</ele>
        <time>2012-07-06T09:02:14+02:00</time>
      </trkpt>
      <trkpt lat="50.31238" lon="3.79923">
        <ele>117</ele>
        <time>2012-07-06T09:02:23+02:00</time>
      </trkpt>
      <trkpt lat="50.31252" lon="3.79922">
        <ele>117</ele>
        <time>2012-07-06T09:02:32+02:00</time>
      </trkpt>
      <trkpt lat="50.31265" lon="3.79922">
        <ele>117</ele>
        <time>2012-07-06T09:02:40+02:00</time>
      </trkpt>
      <trkpt lat="50.31277" lon="3.7992">
        <ele>117</ele>
        <time>2012-07-06T09:02:47+02:00</time>
      </trkpt>
      <trkpt lat="50.31288" lon="3.79919">
        <ele>117</ele>
        <time>2012-07-06T09:02:57+02:00</time>
      </trkpt>
      <trkpt lat="50.313" lon="3.79916">
        <ele>116</ele>
        <time>2012-07-06T09:03:06+02:00</time>
      </trkpt>
      <trkpt lat="50.31315" lon="3.79917">
        <ele>116</ele>
        <time>2012-07-06T09:03:17+02:00</time>
      </trkpt>
      <trkpt lat="50.31327" lon="3.79916">
        <ele>116</ele>
        <time>2012-07-06T09:03:25+02:00</time>
      </trkpt>
      <trkpt lat="50.3134" lon="3.79915">
        <ele>116</ele>
        <time>2012-07-06T09:03:35+02:00</time>
      </trkpt>
      <trkpt lat="50.3135" lon="3.79913">
        <ele>116</ele>
        <time>2012-07-06T09:03:44+02:00</time>
      </trkpt>
      <trkpt lat="50.3136" lon="3.79912">
        <ele>116</ele>
        <time>2012-07-06T09:03:55+02:00</time>
      </trkpt>
      <trkpt lat="50.31374" lon="3.79914">
        <ele>116</ele>
        <time>2012-07-06T09:04:03+02:00</time>
      </trkpt>
      <trkpt lat="50.31387" lon="3.79916">
        <ele>116</ele>
        <time>2012-07-06T09:04:11+02:00</time>
      </trkpt>
      <trkpt lat="50.314" lon="3.79917">
        <ele>116</ele>
        <time>2012-07-06T09:04:21+02:00</time>
      </trkpt>
      <trkpt lat="50.31413" lon="3.79916">
        <ele>116</ele>
        <time>2012-07-06T09:04:31+02:00</time>
      </trkpt>
      <trkpt lat="50.31422" lon="3.79914">
        <ele>116</ele>
        <time>2012-07-06T09:04:40+02:00</time>
      </trkpt>
      <trkpt lat="50.31434" lon="3.79912">
        <ele>116</ele>
        <time>2012-07-06T09:04:47+02:00</time>
      </trkpt>
      <trkpt lat="50.31444" lon="3.79907">
        <ele>116</ele>
        <time>2012-07-06T09:04:57+02:00</time>
      </trkpt>
      <trkpt lat="50.31453" lon="3.79903">
        <ele>116</ele>
        <time>2012-07-06T09:05:06+02:00</time>
      </trkpt>
      <trkpt lat="50.31462" lon="3.799">
        <ele>116</ele>
        <time>2012-07-06T09:05:17+02:00</time>
      </trkpt>
      <trkpt lat="50.31473" lon="3.79895">
        <ele>117</ele>
        <time>2012-07-06T09:05:29+02:00</time>
      </trkpt>
      <trkpt lat="50.31502" lon="3.7988">
        <ele>118</ele>
        <time>2012-07-06T09:05:42+02:00</time>
      </trkpt>
      <trkpt lat="50.31511" lon="3.79878">
        <ele>117</ele>
        <time>2012-07-06T09:05:49+02:00</time>
      </trkpt>
      <trkpt lat="50.31522" lon="3.79868">
        <ele>117</ele>
        <time>2012-07-06T09:05:57+02:00</time>
      </trkpt>
      <trkpt lat="50.31532" lon="3.79857">
        <ele>117</ele>
        <time>2012-07-06T09:06:05+02:00</time>
      </trkpt>
      <trkpt lat="50.31538" lon="3.79845">
        <ele>117</ele>
        <time>2012-07-06T09:06:13+02:00</time>
      </trkpt>
      <trkpt lat="50.31547" lon="3.79836">
        <ele>116</ele>
        <time>2012-07-06T09:06:22+02:00</time>
      </trkpt>
      <trkpt lat="50.31555" lon="3.79823">
        <ele>116</ele>
        <time>2012-07-06T09:06:30+02:00</time>
      </trkpt>
      <trkpt lat="50.31564" lon="3.79813">
        <ele>116</ele>
        <time>2012-07-06T09:06:37+02:00</time>
      </trkpt>
      <trkpt lat="50.31572" lon="3.79799">
        <ele>117</ele>
        <time>2012-07-06T09:06:46+02:00</time>
      </trkpt>
      <trkpt lat="50.31578" lon="3.79787">
        <ele>117</ele>
        <time>2012-07-06T09:06:55+02:00</time>
      </trkpt>
      <trkpt lat="50.31582" lon="3.79775">
        <ele>118</ele>
        <time>2012-07-06T09:07:05+02:00</time>
      </trkpt>
      <trkpt lat="50.31591" lon="3.79757">
        <ele>120</ele>
        <time>2012-07-06T09:07:14+02:00</time>
      </trkpt>
      <trkpt lat="50.316" lon="3.79737">
        <ele>121</ele>
        <time>2012-07-06T09:07:23+02:00</time>
      </trkpt>
      <trkpt lat="50.31609" lon="3.79722">
        <ele>122</ele>
        <time>2012-07-06T09:07:32+02:00</time>
      </trkpt>
      <trkpt lat="50.31613" lon="3.79702">
        <ele>123</ele>
        <time>2012-07-06T09:07:41+02:00</time>
      </trkpt>
      <trkpt lat="50.3162" lon="3.79707">
        <ele>123</ele>
        <time>2012-07-06T09:07:50+02:00</time>
      </trkpt>
      <trkpt lat="50.31627" lon="3.7972">
        <ele>123</ele>
        <time>2012-07-06T09:07:58+02:00</time>
      </trkpt>
      <trkpt lat="50.3163" lon="3.79737">
        <ele>122</ele>
        <time>2012-07-06T09:08:06+02:00</time>
      </trkpt>
      <trkpt lat="50.3163" lon="3.79752">
        <ele>122</ele>
        <time>2012-07-06T09:08:13+02:00</time>
      </trkpt>
      <trkpt lat="50.31629" lon="3.79768">
        <ele>121</ele>
        <time>2012-07-06T09:08:22+02:00</time>
      </trkpt>
      <trkpt lat="50.31633" lon="3.79789">
        <ele>120</ele>
        <time>2012-07-06T09:08:30+02:00</time>
      </trkpt>
      <trkpt lat="50.31639" lon="3.79804">
        <ele>120</ele>
        <time>2012-07-06T09:08:38+02:00</time>
      </trkpt>
      <trkpt lat="50.31647" lon="3.79813">
        <ele>120</ele>
        <time>2012-07-06T09:08:46+02:00</time>
      </trkpt>
      <trkpt lat="50.31656" lon="3.79823">
        <ele>121</ele>
        <time>2012-07-06T09:08:54+02:00</time>
      </trkpt>
      <trkpt lat="50.31666" lon="3.79833">
        <ele>122</ele>
        <time>2012-07-06T09:09:02+02:00</time>
      </trkpt>
      <trkpt lat="50.31673" lon="3.79848">
        <ele>123</ele>
        <time>2012-07-06T09:09:13+02:00</time>
      </trkpt>
      <trkpt lat="50.31683" lon="3.79864">
        <ele>124</ele>
        <time>2012-07-06T09:09:22+02:00</time>
      </trkpt>
      <trkpt lat="50.3169" lon="3.79877">
        <ele>125</ele>
        <time>2012-07-06T09:09:31+02:00</time>
      </trkpt>
      <trkpt lat="50.31697" lon="3.7989">
        <ele>126</ele>
        <time>2012-07-06T09:09:40+02:00</time>
      </trkpt>
      <trkpt lat="50.31702" lon="3.79906">
        <ele>127</ele>
        <time>2012-07-06T09:09:50+02:00</time>
      </trkpt>
      <trkpt lat="50.31706" lon="3.79921">
        <ele>128</ele>
        <time>2012-07-06T09:10:00+02:00</time>
      </trkpt>
      <trkpt lat="50.31709" lon="3.79935">
        <ele>128</ele>
        <time>2012-07-06T09:10:09+02:00</time>
      </trkpt>
      <trkpt lat="50.31716" lon="3.79951">
        <ele>130</ele>
        <time>2012-07-06T09:10:18+02:00</time>
      </trkpt>
      <trkpt lat="50.31723" lon="3.79968">
        <ele>131</ele>
        <time>2012-07-06T09:10:27+02:00</time>
      </trkpt>
      <trkpt lat="50.3173" lon="3.79985">
        <ele>132</ele>
        <time>2012-07-06T09:10:36+02:00</time>
      </trkpt>
      <trkpt lat="50.31737" lon="3.80001">
        <ele>134</ele>
        <time>2012-07-06T09:10:57+02:00</time>
      </trkpt>
      <trkpt lat="50.31744" lon="3.80019">
        <ele>135</ele>
        <time>2012-07-06T09:11:07+02:00</time>
      </trkpt>
      <trkpt lat="50.3175" lon="3.80034">
        <ele>136</ele>
        <time>2012-07-06T09:11:17+02:00</time>
      </trkpt>
      <trkpt lat="50.31755" lon="3.80048">
        <ele>136</ele>
        <time>2012-07-06T09:11:25+02:00</time>
      </trkpt>
      <trkpt lat="50.31761" lon="3.80059">
        <ele>136</ele>
        <time>2012-07-06T09:11:32+02:00</time>
      </trkpt>
      <trkpt lat="50.31768" lon="3.80074">
        <ele>136</ele>
        <time>2012-07-06T09:11:41+02:00</time>
      </trkpt>
      <trkpt lat="50.31775" lon="3.80085">
        <ele>136</ele>
        <time>2012-07-06T09:11:50+02:00</time>
      </trkpt>
      <trkpt lat="50.31783" lon="3.80098">
        <ele>136</ele>
        <time>2012-07-06T09:11:59+02:00</time>
      </trkpt>
      <trkpt lat="50.3179" lon="3.80111">
        <ele>137</ele>
        <time>2012-07-06T09:12:07+02:00</time>
      </trkpt>
      <trkpt lat="50.31796" lon="3.80124">
        <ele>137</ele>
        <time>2012-07-06T09:12:15+02:00</time>
      </trkpt>
      <trkpt lat="50.31801" lon="3.8014">
        <ele>138</ele>
        <time>2012-07-06T09:12:24+02:00</time>
      </trkpt>
      <trkpt lat="50.31807" lon="3.80157">
        <ele>138</ele>
        <time>2012-07-06T09:12:33+02:00</time>
      </trkpt>
      <trkpt lat="50.31812" lon="3.8017">
        <ele>139</ele>
        <time>2012-07-06T09:12:42+02:00</time>
      </trkpt>
      <trkpt lat="50.31817" lon="3.80187">
        <ele>139</ele>
        <time>2012-07-06T09:12:52+02:00</time>
      </trkpt>
      <trkpt lat="50.31823" lon="3.80205">
        <ele>139</ele>
        <time>2012-07-06T09:13:02+02:00</time>
      </trkpt>
      <trkpt lat="50.31828" lon="3.8022">
        <ele>139</ele>
        <time>2012-07-06T09:13:10+02:00</time>
      </trkpt>
      <trkpt lat="50.31832" lon="3.80236">
        <ele>139</ele>
        <time>2012-07-06T09:13:19+02:00</time>
      </trkpt>
      <trkpt lat="50.31836" lon="3.80249">
        <ele>139</ele>
        <time>2012-07-06T09:13:28+02:00</time>
      </trkpt>
      <trkpt lat="50.31841" lon="3.80263">
        <ele>138</ele>
        <time>2012-07-06T09:13:34+02:00</time>
      </trkpt>
      <trkpt lat="50.31847" lon="3.80277">
        <ele>137</ele>
        <time>2012-07-06T09:13:43+02:00</time>
      </trkpt>
      <trkpt lat="50.31852" lon="3.80291">
        <ele>137</ele>
        <time>2012-07-06T09:13:50+02:00</time>
      </trkpt>
      <trkpt lat="50.31857" lon="3.80307">
        <ele>136</ele>
        <time>2012-07-06T09:13:58+02:00</time>
      </trkpt>
      <trkpt lat="50.31861" lon="3.80323">
        <ele>136</ele>
        <time>2012-07-06T09:14:06+02:00</time>
      </trkpt>
      <trkpt lat="50.31868" lon="3.80336">
        <ele>135</ele>
        <time>2012-07-06T09:14:14+02:00</time>
      </trkpt>
      <trkpt lat="50.31875" lon="3.80349">
        <ele>136</ele>
        <time>2012-07-06T09:14:23+02:00</time>
      </trkpt>
      <trkpt lat="50.31879" lon="3.80365">
        <ele>135</ele>
        <time>2012-07-06T09:14:33+02:00</time>
      </trkpt>
      <trkpt lat="50.31884" lon="3.80379">
        <ele>135</ele>
        <time>2012-07-06T09:14:41+02:00</time>
      </trkpt>
      <trkpt lat="50.31892" lon="3.80394">
        <ele>135</ele>
        <time>2012-07-06T09:14:50+02:00</time>
      </trkpt>
      <trkpt lat="50.31897" lon="3.80409">
        <ele>135</ele>
        <time>2012-07-06T09:14:59+02:00</time>
      </trkpt>
      <trkpt lat="50.31903" lon="3.80425">
        <ele>135</ele>
        <time>2012-07-06T09:15:09+02:00</time>
      </trkpt>
      <trkpt lat="50.31908" lon="3.80438">
        <ele>135</ele>
        <time>2012-07-06T09:15:19+02:00</time>
      </trkpt>
      <trkpt lat="50.31912" lon="3.80452">
        <ele>135</ele>
        <time>2012-07-06T09:15:27+02:00</time>
      </trkpt>
      <trkpt lat="50.31919" lon="3.80461">
        <ele>134</ele>
        <time>2012-07-06T09:15:35+02:00</time>
      </trkpt>
      <trkpt lat="50.31926" lon="3.80464">
        <ele>134</ele>
        <time>2012-07-06T09:16:44+02:00</time>
      </trkpt>
      <trkpt lat="50.31935" lon="3.80471">
        <ele>133</ele>
        <time>2012-07-06T09:16:52+02:00</time>
      </trkpt>
      <trkpt lat="50.31944" lon="3.80466">
        <ele>132</ele>
        <time>2012-07-06T09:16:59+02:00</time>
      </trkpt>
      <trkpt lat="50.31953" lon="3.80457">
        <ele>132</ele>
        <time>2012-07-06T09:17:08+02:00</time>
      </trkpt>
      <trkpt lat="50.31964" lon="3.80451">
        <ele>131</ele>
        <time>2012-07-06T09:17:15+02:00</time>
      </trkpt>
      <trkpt lat="50.31972" lon="3.80444">
        <ele>130</ele>
        <time>2012-07-06T09:17:23+02:00</time>
      </trkpt>
      <trkpt lat="50.31981" lon="3.80435">
        <ele>130</ele>
        <time>2012-07-06T09:17:31+02:00</time>
      </trkpt>
      <trkpt lat="50.31989" lon="3.80428">
        <ele>129</ele>
        <time>2012-07-06T09:17:37+02:00</time>
      </trkpt>
      <trkpt lat="50.31997" lon="3.8042">
        <ele>128</ele>
        <time>2012-07-06T09:17:43+02:00</time>
      </trkpt>
      <trkpt lat="50.32005" lon="3.80414">
        <ele>128</ele>
        <time>2012-07-06T09:17:51+02:00</time>
      </trkpt>
      <trkpt lat="50.32013" lon="3.80406">
        <ele>128</ele>
        <time>2012-07-06T09:17:59+02:00</time>
      </trkpt>
      <trkpt lat="50.32022" lon="3.80397">
        <ele>127</ele>
        <time>2012-07-06T09:18:06+02:00</time>
      </trkpt>
      <trkpt lat="50.32031" lon="3.80388">
        <ele>127</ele>
        <time>2012-07-06T09:18:12+02:00</time>
      </trkpt>
      <trkpt lat="50.32039" lon="3.8038">
        <ele>127</ele>
        <time>2012-07-06T09:18:18+02:00</time>
      </trkpt>
      <trkpt lat="50.32046" lon="3.80372">
        <ele>126</ele>
        <time>2012-07-06T09:18:27+02:00</time>
      </trkpt>
      <trkpt lat="50.32056" lon="3.80365">
        <ele>126</ele>
        <time>2012-07-06T09:18:35+02:00</time>
      </trkpt>
      <trkpt lat="50.32066" lon="3.80358">
        <ele>125</ele>
        <time>2012-07-06T09:18:42+02:00</time>
      </trkpt>
      <trkpt lat="50.32075" lon="3.80357">
        <ele>124</ele>
        <time>2012-07-06T09:18:48+02:00</time>
      </trkpt>
      <trkpt lat="50.32085" lon="3.80359">
        <ele>123</ele>
        <time>2012-07-06T09:18:54+02:00</time>
      </trkpt>
      <trkpt lat="50.32094" lon="3.80359">
        <ele>123</ele>
        <time>2012-07-06T09:19:00+02:00</time>
      </trkpt>
      <trkpt lat="50.32104" lon="3.8036">
        <ele>122</ele>
        <time>2012-07-06T09:19:08+02:00</time>
      </trkpt>
      <trkpt lat="50.32114" lon="3.80356">
        <ele>122</ele>
        <time>2012-07-06T09:19:17+02:00</time>
      </trkpt>
      <trkpt lat="50.32123" lon="3.80348">
        <ele>121</ele>
        <time>2012-07-06T09:19:24+02:00</time>
      </trkpt>
      <trkpt lat="50.32132" lon="3.80338">
        <ele>120</ele>
        <time>2012-07-06T09:19:31+02:00</time>
      </trkpt>
      <trkpt lat="50.3214" lon="3.80327">
        <ele>120</ele>
        <time>2012-07-06T09:19:38+02:00</time>
      </trkpt>
      <trkpt lat="50.32147" lon="3.80317">
        <ele>119</ele>
        <time>2012-07-06T09:19:44+02:00</time>
      </trkpt>
      <trkpt lat="50.32154" lon="3.80307">
        <ele>118</ele>
        <time>2012-07-06T09:19:50+02:00</time>
      </trkpt>
      <trkpt lat="50.3216" lon="3.80298">
        <ele>118</ele>
        <time>2012-07-06T09:19:56+02:00</time>
      </trkpt>
      <trkpt lat="50.32167" lon="3.80289">
        <ele>117</ele>
        <time>2012-07-06T09:20:04+02:00</time>
      </trkpt>
      <trkpt lat="50.32175" lon="3.80278">
        <ele>117</ele>
        <time>2012-07-06T09:20:13+02:00</time>
      </trkpt>
      <trkpt lat="50.32185" lon="3.80269">
        <ele>117</ele>
        <time>2012-07-06T09:20:20+02:00</time>
      </trkpt>
      <trkpt lat="50.32193" lon="3.80258">
        <ele>116</ele>
        <time>2012-07-06T09:20:27+02:00</time>
      </trkpt>
      <trkpt lat="50.322" lon="3.80247">
        <ele>116</ele>
        <time>2012-07-06T09:20:33+02:00</time>
      </trkpt>
      <trkpt lat="50.32208" lon="3.8024">
        <ele>116</ele>
        <time>2012-07-06T09:20:38+02:00</time>
      </trkpt>
      <trkpt lat="50.32215" lon="3.80231">
        <ele>116</ele>
        <time>2012-07-06T09:20:44+02:00</time>
      </trkpt>
      <trkpt lat="50.32223" lon="3.80223">
        <ele>116</ele>
        <time>2012-07-06T09:20:51+02:00</time>
      </trkpt>
      <trkpt lat="50.32233" lon="3.80216">
        <ele>115</ele>
        <time>2012-07-06T09:21:00+02:00</time>
      </trkpt>
      <trkpt lat="50.32243" lon="3.80209">
        <ele>115</ele>
        <time>2012-07-06T09:21:09+02:00</time>
      </trkpt>
      <trkpt lat="50.32251" lon="3.80202">
        <ele>115</ele>
        <time>2012-07-06T09:21:17+02:00</time>
      </trkpt>
      <trkpt lat="50.32258" lon="3.80198">
        <ele>115</ele>
        <time>2012-07-06T09:22:07+02:00</time>
      </trkpt>
      <trkpt lat="50.32266" lon="3.80193">
        <ele>116</ele>
        <time>2012-07-06T09:22:15+02:00</time>
      </trkpt>
      <trkpt lat="50.32274" lon="3.80184">
        <ele>116</ele>
        <time>2012-07-06T09:22:23+02:00</time>
      </trkpt>
      <trkpt lat="50.3228" lon="3.80174">
        <ele>116</ele>
        <time>2012-07-06T09:22:32+02:00</time>
      </trkpt>
      <trkpt lat="50.32287" lon="3.80162">
        <ele>116</ele>
        <time>2012-07-06T09:22:42+02:00</time>
      </trkpt>
      <trkpt lat="50.32294" lon="3.80149">
        <ele>117</ele>
        <time>2012-07-06T09:22:49+02:00</time>
      </trkpt>
      <trkpt lat="50.32303" lon="3.80138">
        <ele>117</ele>
        <time>2012-07-06T09:22:56+02:00</time>
      </trkpt>
      <trkpt lat="50.32312" lon="3.8013">
        <ele>117</ele>
        <time>2012-07-06T09:23:02+02:00</time>
      </trkpt>
      <trkpt lat="50.32324" lon="3.80128">
        <ele>118</ele>
        <time>2012-07-06T09:23:10+02:00</time>
      </trkpt>
      <trkpt lat="50.32335" lon="3.80131">
        <ele>118</ele>
        <time>2012-07-06T09:23:17+02:00</time>
      </trkpt>
      <trkpt lat="50.32345" lon="3.80134">
        <ele>118</ele>
        <time>2012-07-06T09:23:23+02:00</time>
      </trkpt>
      <trkpt lat="50.32355" lon="3.80139">
        <ele>118</ele>
        <time>2012-07-06T09:23:29+02:00</time>
      </trkpt>
      <trkpt lat="50.32364" lon="3.80141">
        <ele>118</ele>
        <time>2012-07-06T09:23:34+02:00</time>
      </trkpt>
      <trkpt lat="50.32372" lon="3.80145">
        <ele>118</ele>
        <time>2012-07-06T09:23:42+02:00</time>
      </trkpt>
      <trkpt lat="50.32381" lon="3.80145">
        <ele>118</ele>
        <time>2012-07-06T09:23:48+02:00</time>
      </trkpt>
      <trkpt lat="50.32386" lon="3.80147">
        <ele>117</ele>
        <time>2012-07-06T09:24:55+02:00</time>
      </trkpt>
      <trkpt lat="50.32396" lon="3.80149">
        <ele>117</ele>
        <time>2012-07-06T09:25:02+02:00</time>
      </trkpt>
      <trkpt lat="50.32404" lon="3.80157">
        <ele>117</ele>
        <time>2012-07-06T09:25:09+02:00</time>
      </trkpt>
      <trkpt lat="50.32411" lon="3.80151">
        <ele>117</ele>
        <time>2012-07-06T09:25:15+02:00</time>
      </trkpt>
      <trkpt lat="50.32413" lon="3.80137">
        <ele>117</ele>
        <time>2012-07-06T09:25:20+02:00</time>
      </trkpt>
      <trkpt lat="50.32411" lon="3.80122">
        <ele>117</ele>
        <time>2012-07-06T09:25:27+02:00</time>
      </trkpt>
      <trkpt lat="50.32408" lon="3.80106">
        <ele>117</ele>
        <time>2012-07-06T09:25:34+02:00</time>
      </trkpt>
      <trkpt lat="50.32406" lon="3.80091">
        <ele>117</ele>
        <time>2012-07-06T09:25:41+02:00</time>
      </trkpt>
      <trkpt lat="50.32404" lon="3.80076">
        <ele>117</ele>
        <time>2012-07-06T09:25:48+02:00</time>
      </trkpt>
      <trkpt lat="50.32409" lon="3.8006">
        <ele>117</ele>
        <time>2012-07-06T09:25:54+02:00</time>
      </trkpt>
      <trkpt lat="50.32411" lon="3.80047">
        <ele>117</ele>
        <time>2012-07-06T09:25:59+02:00</time>
      </trkpt>
      <trkpt lat="50.32415" lon="3.80032">
        <ele>116</ele>
        <time>2012-07-06T09:26:06+02:00</time>
      </trkpt>
      <trkpt lat="50.32419" lon="3.80017">
        <ele>116</ele>
        <time>2012-07-06T09:26:13+02:00</time>
      </trkpt>
      <trkpt lat="50.32421" lon="3.79999">
        <ele>116</ele>
        <time>2012-07-06T09:26:21+02:00</time>
      </trkpt>
      <trkpt lat="50.32421" lon="3.79984">
        <ele>114</ele>
        <time>2012-07-06T09:26:30+02:00</time>
      </trkpt>
      <trkpt lat="50.32423" lon="3.79966">
        <ele>113</ele>
        <time>2012-07-06T09:26:39+02:00</time>
      </trkpt>
      <trkpt lat="50.32429" lon="3.79949">
        <ele>111</ele>
        <time>2012-07-06T09:26:56+02:00</time>
      </trkpt>
      <trkpt lat="50.32434" lon="3.7994">
        <ele>110</ele>
        <time>2012-07-06T09:27:29+02:00</time>
      </trkpt>
      <trkpt lat="50.32441" lon="3.79949">
        <ele>110</ele>
        <time>2012-07-06T09:27:38+02:00</time>
      </trkpt>
      <trkpt lat="50.32449" lon="3.79958">
        <ele>110</ele>
        <time>2012-07-06T09:27:47+02:00</time>
      </trkpt>
      <trkpt lat="50.3246" lon="3.79964">
        <ele>110</ele>
        <time>2012-07-06T09:27:55+02:00</time>
      </trkpt>
      <trkpt lat="50.32468" lon="3.79972">
        <ele>109</ele>
        <time>2012-07-06T09:28:02+02:00</time>
      </trkpt>
      <trkpt lat="50.32477" lon="3.79984">
        <ele>109</ele>
        <time>2012-07-06T09:28:11+02:00</time>
      </trkpt>
      <trkpt lat="50.32484" lon="3.79991">
        <ele>109</ele>
        <time>2012-07-06T09:28:19+02:00</time>
      </trkpt>
      <trkpt lat="50.32494" lon="3.79999">
        <ele>109</ele>
        <time>2012-07-06T09:28:29+02:00</time>
      </trkpt>
      <trkpt lat="50.32505" lon="3.80006">
        <ele>108</ele>
        <time>2012-07-06T09:28:38+02:00</time>
      </trkpt>
      <trkpt lat="50.32517" lon="3.80012">
        <ele>108</ele>
        <time>2012-07-06T09:28:47+02:00</time>
      </trkpt>
      <trkpt lat="50.32525" lon="3.80019">
        <ele>108</ele>
        <time>2012-07-06T09:28:55+02:00</time>
      </trkpt>
      <trkpt lat="50.32534" lon="3.80024">
        <ele>108</ele>
        <time>2012-07-06T09:29:02+02:00</time>
      </trkpt>
      <trkpt lat="50.32545" lon="3.80028">
        <ele>108</ele>
        <time>2012-07-06T09:29:11+02:00</time>
      </trkpt>
      <trkpt lat="50.32553" lon="3.80036">
        <ele>109</ele>
        <time>2012-07-06T09:29:17+02:00</time>
      </trkpt>
      <trkpt lat="50.32562" lon="3.80042">
        <ele>109</ele>
        <time>2012-07-06T09:29:25+02:00</time>
      </trkpt>
      <trkpt lat="50.3257" lon="3.80049">
        <ele>109</ele>
        <time>2012-07-06T09:29:32+02:00</time>
      </trkpt>
      <trkpt lat="50.32578" lon="3.80057">
        <ele>109</ele>
        <time>2012-07-06T09:29:39+02:00</time>
      </trkpt>
      <trkpt lat="50.32585" lon="3.80067">
        <ele>109</ele>
        <time>2012-07-06T09:29:48+02:00</time>
      </trkpt>
      <trkpt lat="50.32592" lon="3.8008">
        <ele>109</ele>
        <time>2012-07-06T09:29:57+02:00</time>
      </trkpt>
      <trkpt lat="50.326" lon="3.80088">
        <ele>109</ele>
        <time>2012-07-06T09:30:05+02:00</time>
      </trkpt>
      <trkpt lat="50.32607" lon="3.80098">
        <ele>109</ele>
        <time>2012-07-06T09:30:12+02:00</time>
      </trkpt>
      <trkpt lat="50.32614" lon="3.80108">
        <ele>109</ele>
        <time>2012-07-06T09:30:21+02:00</time>
      </trkpt>
      <trkpt lat="50.3262" lon="3.8012">
        <ele>109</ele>
        <time>2012-07-06T09:30:28+02:00</time>
      </trkpt>
      <trkpt lat="50.32627" lon="3.80133">
        <ele>109</ele>
        <time>2012-07-06T09:30:37+02:00</time>
      </trkpt>
      <trkpt lat="50.32632" lon="3.80146">
        <ele>109</ele>
        <time>2012-07-06T09:30:43+02:00</time>
      </trkpt>
      <trkpt lat="50.32638" lon="3.80161">
        <ele>109</ele>
        <time>2012-07-06T09:31:01+02:00</time>
      </trkpt>
      <trkpt lat="50.32643" lon="3.80176">
        <ele>109</ele>
        <time>2012-07-06T09:31:08+02:00</time>
      </trkpt>
      <trkpt lat="50.32651" lon="3.80187">
        <ele>110</ele>
        <time>2012-07-06T09:31:18+02:00</time>
      </trkpt>
      <trkpt lat="50.32659" lon="3.802">
        <ele>110</ele>
        <time>2012-07-06T09:31:27+02:00</time>
      </trkpt>
      <trkpt lat="50.32666" lon="3.80216">
        <ele>111</ele>
        <time>2012-07-06T09:31:55+02:00</time>
      </trkpt>
      <trkpt lat="50.32675" lon="3.80229">
        <ele>111</ele>
        <time>2012-07-06T09:32:03+02:00</time>
      </trkpt>
      <trkpt lat="50.32682" lon="3.80238">
        <ele>112</ele>
        <time>2012-07-06T09:32:11+02:00</time>
      </trkpt>
      <trkpt lat="50.32688" lon="3.80253">
        <ele>112</ele>
        <time>2012-07-06T09:32:19+02:00</time>
      </trkpt>
      <trkpt lat="50.32696" lon="3.80264">
        <ele>112</ele>
        <time>2012-07-06T09:32:25+02:00</time>
      </trkpt>
      <trkpt lat="50.32702" lon="3.80278">
        <ele>112</ele>
        <time>2012-07-06T09:32:35+02:00</time>
      </trkpt>
      <trkpt lat="50.32707" lon="3.8029">
        <ele>112</ele>
        <time>2012-07-06T09:32:48+02:00</time>
      </trkpt>
      <trkpt lat="50.32713" lon="3.80302">
        <ele>112</ele>
        <time>2012-07-06T09:32:57+02:00</time>
      </trkpt>
      <trkpt lat="50.32721" lon="3.80313">
        <ele>111</ele>
        <time>2012-07-06T09:33:05+02:00</time>
      </trkpt>
      <trkpt lat="50.32727" lon="3.80325">
        <ele>111</ele>
        <time>2012-07-06T09:33:13+02:00</time>
      </trkpt>
      <trkpt lat="50.32733" lon="3.80339">
        <ele>111</ele>
        <time>2012-07-06T09:33:23+02:00</time>
      </trkpt>
      <trkpt lat="50.3274" lon="3.80351">
        <ele>111</ele>
        <time>2012-07-06T09:33:31+02:00</time>
      </trkpt>
      <trkpt lat="50.32747" lon="3.80364">
        <ele>111</ele>
        <time>2012-07-06T09:33:41+02:00</time>
      </trkpt>
      <trkpt lat="50.32755" lon="3.8038">
        <ele>112</ele>
        <time>2012-07-06T09:33:52+02:00</time>
      </trkpt>
      <trkpt lat="50.3276" lon="3.80393">
        <ele>113</ele>
        <time>2012-07-06T09:34:00+02:00</time>
      </trkpt>
      <trkpt lat="50.32766" lon="3.80407">
        <ele>114</ele>
        <time>2012-07-06T09:34:10+02:00</time>
      </trkpt>
      <trkpt lat="50.32771" lon="3.80422">
        <ele>115</ele>
        <time>2012-07-06T09:34:19+02:00</time>
      </trkpt>
      <trkpt lat="50.32774" lon="3.80438">
        <ele>116</ele>
        <time>2012-07-06T09:34:28+02:00</time>
      </trkpt>
      <trkpt lat="50.32779" lon="3.80454">
        <ele>116</ele>
        <time>2012-07-06T09:34:37+02:00</time>
      </trkpt>
      <trkpt lat="50.32784" lon="3.8047">
        <ele>117</ele>
        <time>2012-07-06T09:34:45+02:00</time>
      </trkpt>
      <trkpt lat="50.32787" lon="3.80487">
        <ele>117</ele>
        <time>2012-07-06T09:34:53+02:00</time>
      </trkpt>
      <trkpt lat="50.32791" lon="3.80503">
        <ele>118</ele>
        <time>2012-07-06T09:35:02+02:00</time>
      </trkpt>
      <trkpt lat="50.32794" lon="3.80522">
        <ele>117</ele>
        <time>2012-07-06T09:35:12+02:00</time>
      </trkpt>
      <trkpt lat="50.32795" lon="3.80536">
        <ele>117</ele>
        <time>2012-07-06T09:35:23+02:00</time>
      </trkpt>
      <trkpt lat="50.32801" lon="3.80553">
        <ele>117</ele>
        <time>2012-07-06T09:35:33+02:00</time>
      </trkpt>
      <trkpt lat="50.32802" lon="3.80573">
        <ele>117</ele>
        <time>2012-07-06T09:35:42+02:00</time>
      </trkpt>
      <trkpt lat="50.32801" lon="3.80591">
        <ele>117</ele>
        <time>2012-07-06T09:35:51+02:00</time>
      </trkpt>
      <trkpt lat="50.32803" lon="3.80608">
        <ele>117</ele>
        <time>2012-07-06T09:35:59+02:00</time>
      </trkpt>
      <trkpt lat="50.32806" lon="3.80625">
        <ele>116</ele>
        <time>2012-07-06T09:36:07+02:00</time>
      </trkpt>
      <trkpt lat="50.32806" lon="3.80643">
        <ele>116</ele>
        <time>2012-07-06T09:36:16+02:00</time>
      </trkpt>
      <trkpt lat="50.32807" lon="3.80659">
        <ele>116</ele>
        <time>2012-07-06T09:36:25+02:00</time>
      </trkpt>
      <trkpt lat="50.32808" lon="3.80678">
        <ele>117</ele>
        <time>2012-07-06T09:36:34+02:00</time>
      </trkpt>
      <trkpt lat="50.3281" lon="3.80695">
        <ele>117</ele>
        <time>2012-07-06T09:36:42+02:00</time>
      </trkpt>
      <trkpt lat="50.32811" lon="3.80716">
        <ele>117</ele>
        <time>2012-07-06T09:36:53+02:00</time>
      </trkpt>
      <trkpt lat="50.32811" lon="3.80733">
        <ele>117</ele>
        <time>2012-07-06T09:37:02+02:00</time>
      </trkpt>
      <trkpt lat="50.3281" lon="3.8075">
        <ele>118</ele>
        <time>2012-07-06T09:37:12+02:00</time>
      </trkpt>
      <trkpt lat="50.32806" lon="3.80767">
        <ele>118</ele>
        <time>2012-07-06T09:37:21+02:00</time>
      </trkpt>
      <trkpt lat="50.32808" lon="3.80786">
        <ele>118</ele>
        <time>2012-07-06T09:37:29+02:00</time>
      </trkpt>
      <trkpt lat="50.32809" lon="3.80803">
        <ele>117</ele>
        <time>2012-07-06T09:37:38+02:00</time>
      </trkpt>
      <trkpt lat="50.32808" lon="3.80818">
        <ele>117</ele>
        <time>2012-07-06T09:37:49+02:00</time>
      </trkpt>
      <trkpt lat="50.32806" lon="3.80833">
        <ele>117</ele>
        <time>2012-07-06T09:38:04+02:00</time>
      </trkpt>
      <trkpt lat="50.32808" lon="3.8085">
        <ele>117</ele>
        <time>2012-07-06T09:38:13+02:00</time>
      </trkpt>
      <trkpt lat="50.32808" lon="3.80865">
        <ele>117</ele>
        <time>2012-07-06T09:38:21+02:00</time>
      </trkpt>
      <trkpt lat="50.32806" lon="3.80881">
        <ele>118</ele>
        <time>2012-07-06T09:38:28+02:00</time>
      </trkpt>
      <trkpt lat="50.32807" lon="3.80899">
        <ele>118</ele>
        <time>2012-07-06T09:38:36+02:00</time>
      </trkpt>
      <trkpt lat="50.32808" lon="3.80917">
        <ele>118</ele>
        <time>2012-07-06T09:38:45+02:00</time>
      </trkpt>
      <trkpt lat="50.32809" lon="3.80936">
        <ele>118</ele>
        <time>2012-07-06T09:38:54+02:00</time>
      </trkpt>
      <trkpt lat="50.32809" lon="3.80953">
        <ele>118</ele>
        <time>2012-07-06T09:39:14+02:00</time>
      </trkpt>
      <trkpt lat="50.32811" lon="3.80971">
        <ele>117</ele>
        <time>2012-07-06T09:39:24+02:00</time>
      </trkpt>
      <trkpt lat="50.32811" lon="3.80989">
        <ele>117</ele>
        <time>2012-07-06T09:39:32+02:00</time>
      </trkpt>
      <trkpt lat="50.32808" lon="3.81009">
        <ele>117</ele>
        <time>2012-07-06T09:39:41+02:00</time>
      </trkpt>
      <trkpt lat="50.32808" lon="3.81026">
        <ele>116</ele>
        <time>2012-07-06T09:39:48+02:00</time>
      </trkpt>
      <trkpt lat="50.32806" lon="3.81041">
        <ele>116</ele>
        <time>2012-07-06T09:39:55+02:00</time>
      </trkpt>
      <trkpt lat="50.32807" lon="3.81057">
        <ele>116</ele>
        <time>2012-07-06T09:40:04+02:00</time>
      </trkpt>
      <trkpt lat="50.32807" lon="3.81075">
        <ele>115</ele>
        <time>2012-07-06T09:40:12+02:00</time>
      </trkpt>
      <trkpt lat="50.32809" lon="3.81093">
        <ele>115</ele>
        <time>2012-07-06T09:40:21+02:00</time>
      </trkpt>
      <trkpt lat="50.3281" lon="3.81112">
        <ele>114</ele>
        <time>2012-07-06T09:40:29+02:00</time>
      </trkpt>
      <trkpt lat="50.3281" lon="3.81128">
        <ele>114</ele>
        <time>2012-07-06T09:40:37+02:00</time>
      </trkpt>
      <trkpt lat="50.32808" lon="3.81149">
        <ele>113</ele>
        <time>2012-07-06T09:40:51+02:00</time>
      </trkpt>
      <trkpt lat="50.32801" lon="3.81152">
        <ele>113</ele>
        <time>2012-07-06T09:41:52+02:00</time>
      </trkpt>
      <trkpt lat="50.3279" lon="3.81148">
        <ele>113</ele>
        <time>2012-07-06T09:42:02+02:00</time>
      </trkpt>
      <trkpt lat="50.32778" lon="3.81145">
        <ele>113</ele>
        <time>2012-07-06T09:42:10+02:00</time>
      </trkpt>
      <trkpt lat="50.32768" lon="3.81144">
        <ele>113</ele>
        <time>2012-07-06T09:42:16+02:00</time>
      </trkpt>
      <trkpt lat="50.3276" lon="3.81149">
        <ele>113</ele>
        <time>2012-07-06T09:42:23+02:00</time>
      </trkpt>
      <trkpt lat="50.32752" lon="3.81159">
        <ele>113</ele>
        <time>2012-07-06T09:42:30+02:00</time>
      </trkpt>
      <trkpt lat="50.32742" lon="3.81168">
        <ele>114</ele>
        <time>2012-07-06T09:42:37+02:00</time>
      </trkpt>
      <trkpt lat="50.32734" lon="3.81177">
        <ele>115</ele>
        <time>2012-07-06T09:42:44+02:00</time>
      </trkpt>
      <trkpt lat="50.32724" lon="3.81189">
        <ele>115</ele>
        <time>2012-07-06T09:42:53+02:00</time>
      </trkpt>
      <trkpt lat="50.32716" lon="3.81198">
        <ele>116</ele>
        <time>2012-07-06T09:43:00+02:00</time>
      </trkpt>
      <trkpt lat="50.32707" lon="3.8121">
        <ele>116</ele>
        <time>2012-07-06T09:43:10+02:00</time>
      </trkpt>
      <trkpt lat="50.32699" lon="3.81223">
        <ele>116</ele>
        <time>2012-07-06T09:43:18+02:00</time>
      </trkpt>
      <trkpt lat="50.32694" lon="3.8124">
        <ele>116</ele>
        <time>2012-07-06T09:43:27+02:00</time>
      </trkpt>
      <trkpt lat="50.3269" lon="3.81259">
        <ele>116</ele>
        <time>2012-07-06T09:43:35+02:00</time>
      </trkpt>
      <trkpt lat="50.32688" lon="3.81273">
        <ele>116</ele>
        <time>2012-07-06T09:43:41+02:00</time>
      </trkpt>
      <trkpt lat="50.32687" lon="3.81288">
        <ele>116</ele>
        <time>2012-07-06T09:43:49+02:00</time>
      </trkpt>
      <trkpt lat="50.32685" lon="3.81302">
        <ele>115</ele>
        <time>2012-07-06T09:43:56+02:00</time>
      </trkpt>
      <trkpt lat="50.32684" lon="3.81317">
        <ele>115</ele>
        <time>2012-07-06T09:44:03+02:00</time>
      </trkpt>
      <trkpt lat="50.32683" lon="3.81331">
        <ele>115</ele>
        <time>2012-07-06T09:44:11+02:00</time>
      </trkpt>
      <trkpt lat="50.32681" lon="3.81346">
        <ele>115</ele>
        <time>2012-07-06T09:44:19+02:00</time>
      </trkpt>
      <trkpt lat="50.3268" lon="3.8137">
        <ele>115</ele>
        <time>2012-07-06T09:44:29+02:00</time>
      </trkpt>
      <trkpt lat="50.32677" lon="3.81388">
        <ele>115</ele>
        <time>2012-07-06T09:44:38+02:00</time>
      </trkpt>
      <trkpt lat="50.32673" lon="3.81404">
        <ele>115</ele>
        <time>2012-07-06T09:44:47+02:00</time>
      </trkpt>
      <trkpt lat="50.32668" lon="3.81418">
        <ele>115</ele>
        <time>2012-07-06T09:44:54+02:00</time>
      </trkpt>
      <trkpt lat="50.32663" lon="3.81434">
        <ele>116</ele>
        <time>2012-07-06T09:45:04+02:00</time>
      </trkpt>
      <trkpt lat="50.32656" lon="3.8145">
        <ele>117</ele>
        <time>2012-07-06T09:45:14+02:00</time>
      </trkpt>
      <trkpt lat="50.32648" lon="3.81465">
        <ele>117</ele>
        <time>2012-07-06T09:45:23+02:00</time>
      </trkpt>
      <trkpt lat="50.32642" lon="3.8148">
        <ele>118</ele>
        <time>2012-07-06T09:45:31+02:00</time>
      </trkpt>
      <trkpt lat="50.3264" lon="3.815">
        <ele>119</ele>
        <time>2012-07-06T09:45:41+02:00</time>
      </trkpt>
      <trkpt lat="50.32637" lon="3.81519">
        <ele>119</ele>
        <time>2012-07-06T09:45:49+02:00</time>
      </trkpt>
      <trkpt lat="50.32636" lon="3.81537">
        <ele>120</ele>
        <time>2012-07-06T09:45:57+02:00</time>
      </trkpt>
      <trkpt lat="50.32633" lon="3.81553">
        <ele>120</ele>
        <time>2012-07-06T09:46:04+02:00</time>
      </trkpt>
      <trkpt lat="50.32633" lon="3.8157">
        <ele>120</ele>
        <time>2012-07-06T09:46:12+02:00</time>
      </trkpt>
      <trkpt lat="50.32632" lon="3.81587">
        <ele>121</ele>
        <time>2012-07-06T09:46:20+02:00</time>
      </trkpt>
      <trkpt lat="50.32631" lon="3.81604">
        <ele>120</ele>
        <time>2012-07-06T09:46:28+02:00</time>
      </trkpt>
      <trkpt lat="50.32631" lon="3.81621">
        <ele>120</ele>
        <time>2012-07-06T09:46:36+02:00</time>
      </trkpt>
      <trkpt lat="50.32629" lon="3.81637">
        <ele>120</ele>
        <time>2012-07-06T09:46:45+02:00</time>
      </trkpt>
      <trkpt lat="50.32627" lon="3.81653">
        <ele>120</ele>
        <time>2012-07-06T09:46:52+02:00</time>
      </trkpt>
      <trkpt lat="50.32622" lon="3.81669">
        <ele>120</ele>
        <time>2012-07-06T09:47:01+02:00</time>
      </trkpt>
      <trkpt lat="50.32618" lon="3.81684">
        <ele>120</ele>
        <time>2012-07-06T09:47:08+02:00</time>
      </trkpt>
      <trkpt lat="50.32618" lon="3.81699">
        <ele>120</ele>
        <time>2012-07-06T09:47:17+02:00</time>
      </trkpt>
      <trkpt lat="50.32621" lon="3.81716">
        <ele>120</ele>
        <time>2012-07-06T09:47:25+02:00</time>
      </trkpt>
      <trkpt lat="50.32623" lon="3.81733">
        <ele>119</ele>
        <time>2012-07-06T09:47:32+02:00</time>
      </trkpt>
      <trkpt lat="50.32625" lon="3.81747">
        <ele>119</ele>
        <time>2012-07-06T09:47:40+02:00</time>
      </trkpt>
      <trkpt lat="50.32629" lon="3.81762">
        <ele>119</ele>
        <time>2012-07-06T09:47:47+02:00</time>
      </trkpt>
      <trkpt lat="50.32632" lon="3.81779">
        <ele>119</ele>
        <time>2012-07-06T09:47:54+02:00</time>
      </trkpt>
      <trkpt lat="50.32637" lon="3.8179">
        <ele>118</ele>
        <time>2012-07-06T09:48:03+02:00</time>
      </trkpt>
      <trkpt lat="50.32642" lon="3.81807">
        <ele>118</ele>
        <time>2012-07-06T09:48:12+02:00</time>
      </trkpt>
      <trkpt lat="50.32646" lon="3.81821">
        <ele>118</ele>
        <time>2012-07-06T09:48:20+02:00</time>
      </trkpt>
      <trkpt lat="50.3265" lon="3.81836">
        <ele>118</ele>
        <time>2012-07-06T09:48:29+02:00</time>
      </trkpt>
      <trkpt lat="50.32656" lon="3.81845">
        <ele>118</ele>
        <time>2012-07-06T09:48:41+02:00</time>
      </trkpt>
      <trkpt lat="50.3266" lon="3.81848">
        <ele>118</ele>
        <time>2012-07-06T09:50:14+02:00</time>
      </trkpt>
      <trkpt lat="50.32664" lon="3.8183">
        <ele>117</ele>
        <time>2012-07-06T09:50:24+02:00</time>
      </trkpt>
      <trkpt lat="50.32672" lon="3.81819">
        <ele>117</ele>
        <time>2012-07-06T09:50:34+02:00</time>
      </trkpt>
      <trkpt lat="50.32679" lon="3.81808">
        <ele>117</ele>
        <time>2012-07-06T09:50:41+02:00</time>
      </trkpt>
      <trkpt lat="50.3269" lon="3.81801">
        <ele>117</ele>
        <time>2012-07-06T09:50:49+02:00</time>
      </trkpt>
      <trkpt lat="50.32701" lon="3.81796">
        <ele>116</ele>
        <time>2012-07-06T09:50:57+02:00</time>
      </trkpt>
      <trkpt lat="50.32712" lon="3.81793">
        <ele>116</ele>
        <time>2012-07-06T09:51:04+02:00</time>
      </trkpt>
      <trkpt lat="50.32721" lon="3.81791">
        <ele>116</ele>
        <time>2012-07-06T09:51:13+02:00</time>
      </trkpt>
      <trkpt lat="50.32734" lon="3.81788">
        <ele>115</ele>
        <time>2012-07-06T09:51:21+02:00</time>
      </trkpt>
      <trkpt lat="50.32746" lon="3.81787">
        <ele>115</ele>
        <time>2012-07-06T09:51:30+02:00</time>
      </trkpt>
      <trkpt lat="50.32757" lon="3.81788">
        <ele>115</ele>
        <time>2012-07-06T09:51:40+02:00</time>
      </trkpt>
      <trkpt lat="50.32766" lon="3.81789">
        <ele>116</ele>
        <time>2012-07-06T09:51:46+02:00</time>
      </trkpt>
      <trkpt lat="50.32777" lon="3.81791">
        <ele>116</ele>
        <time>2012-07-06T09:51:55+02:00</time>
      </trkpt>
      <trkpt lat="50.32789" lon="3.81793">
        <ele>117</ele>
        <time>2012-07-06T09:52:03+02:00</time>
      </trkpt>
      <trkpt lat="50.328" lon="3.81795">
        <ele>118</ele>
        <time>2012-07-06T09:52:10+02:00</time>
      </trkpt>
      <trkpt lat="50.32809" lon="3.81798">
        <ele>118</ele>
        <time>2012-07-06T09:52:17+02:00</time>
      </trkpt>
      <trkpt lat="50.32814" lon="3.81807">
        <ele>119</ele>
        <time>2012-07-06T09:52:24+02:00</time>
      </trkpt>
      <trkpt lat="50.32825" lon="3.81809">
        <ele>119</ele>
        <time>2012-07-06T09:52:33+02:00</time>
      </trkpt>
      <trkpt lat="50.32835" lon="3.81803">
        <ele>120</ele>
        <time>2012-07-06T09:52:41+02:00</time>
      </trkpt>
      <trkpt lat="50.32845" lon="3.81801">
        <ele>120</ele>
        <time>2012-07-06T09:52:50+02:00</time>
      </trkpt>
      <trkpt lat="50.32856" lon="3.81804">
        <ele>121</ele>
        <time>2012-07-06T09:52:57+02:00</time>
      </trkpt>
      <trkpt lat="50.32866" lon="3.81812">
        <ele>121</ele>
        <time>2012-07-06T09:53:05+02:00</time>
      </trkpt>
      <trkpt lat="50.32872" lon="3.81822">
        <ele>121</ele>
        <time>2012-07-06T09:53:12+02:00</time>
      </trkpt>
      <trkpt lat="50.32876" lon="3.81835">
        <ele>121</ele>
        <time>2012-07-06T09:53:21+02:00</time>
      </trkpt>
      <trkpt lat="50.32875" lon="3.8185">
        <ele>121</ele>
        <time>2012-07-06T09:53:30+02:00</time>
      </trkpt>
      <trkpt lat="50.32873" lon="3.81867">
        <ele>121</ele>
        <time>2012-07-06T09:53:38+02:00</time>
      </trkpt>
      <trkpt lat="50.32873" lon="3.81882">
        <ele>120</ele>
        <time>2012-07-06T09:53:45+02:00</time>
      </trkpt>
      <trkpt lat="50.32873" lon="3.81899">
        <ele>120</ele>
        <time>2012-07-06T09:53:52+02:00</time>
      </trkpt>
      <trkpt lat="50.32872" lon="3.81914">
        <ele>119</ele>
        <time>2012-07-06T09:53:59+02:00</time>
      </trkpt>
      <trkpt lat="50.32876" lon="3.81928">
        <ele>120</ele>
        <time>2012-07-06T09:54:07+02:00</time>
      </trkpt>
      <trkpt lat="50.32878" lon="3.81945">
        <ele>120</ele>
        <time>2012-07-06T09:54:15+02:00</time>
      </trkpt>
      <trkpt lat="50.32876" lon="3.81962">
        <ele>120</ele>
        <time>2012-07-06T09:54:24+02:00</time>
      </trkpt>
      <trkpt lat="50.32875" lon="3.8198">
        <ele>120</ele>
        <time>2012-07-06T09:54:32+02:00</time>
      </trkpt>
      <trkpt lat="50.32871" lon="3.81995">
        <ele>120</ele>
        <time>2012-07-06T09:54:38+02:00</time>
      </trkpt>
      <trkpt lat="50.32869" lon="3.82009">
        <ele>120</ele>
        <time>2012-07-06T09:54:44+02:00</time>
      </trkpt>
      <trkpt lat="50.32867" lon="3.82023">
        <ele>120</ele>
        <time>2012-07-06T09:54:52+02:00</time>
      </trkpt>
      <trkpt lat="50.32864" lon="3.82037">
        <ele>120</ele>
        <time>2012-07-06T09:54:59+02:00</time>
      </trkpt>
      <trkpt lat="50.32863" lon="3.82051">
        <ele>120</ele>
        <time>2012-07-06T09:55:06+02:00</time>
      </trkpt>
      <trkpt lat="50.3286" lon="3.82065">
        <ele>120</ele>
        <time>2012-07-06T09:55:12+02:00</time>
      </trkpt>
      <trkpt lat="50.32856" lon="3.8208">
        <ele>120</ele>
        <time>2012-07-06T09:55:20+02:00</time>
      </trkpt>
      <trkpt lat="50.32852" lon="3.82094">
        <ele>120</ele>
        <time>2012-07-06T09:55:28+02:00</time>
      </trkpt>
      <trkpt lat="50.32848" lon="3.82109">
        <ele>120</ele>
        <time>2012-07-06T09:55:35+02:00</time>
      </trkpt>
      <trkpt lat="50.32845" lon="3.82123">
        <ele>120</ele>
        <time>2012-07-06T09:55:41+02:00</time>
      </trkpt>
      <trkpt lat="50.32842" lon="3.82137">
        <ele>120</ele>
        <time>2012-07-06T09:55:47+02:00</time>
      </trkpt>
      <trkpt lat="50.3284" lon="3.82149">
        <ele>120</ele>
        <time>2012-07-06T09:55:54+02:00</time>
      </trkpt>
      <trkpt lat="50.32835" lon="3.82164">
        <ele>120</ele>
        <time>2012-07-06T09:56:04+02:00</time>
      </trkpt>
      <trkpt lat="50.32831" lon="3.82178">
        <ele>120</ele>
        <time>2012-07-06T09:56:12+02:00</time>
      </trkpt>
      <trkpt lat="50.32828" lon="3.82195">
        <ele>120</ele>
        <time>2012-07-06T09:56:20+02:00</time>
      </trkpt>
      <trkpt lat="50.32824" lon="3.82207">
        <ele>120</ele>
        <time>2012-07-06T09:56:29+02:00</time>
      </trkpt>
      <trkpt lat="50.32819" lon="3.82221">
        <ele>121</ele>
        <time>2012-07-06T09:56:36+02:00</time>
      </trkpt>
      <trkpt lat="50.32813" lon="3.82231">
        <ele>121</ele>
        <time>2012-07-06T09:57:46+02:00</time>
      </trkpt>
      <trkpt lat="50.32804" lon="3.82232">
        <ele>121</ele>
        <time>2012-07-06T09:57:57+02:00</time>
      </trkpt>
      <trkpt lat="50.32795" lon="3.82224">
        <ele>120</ele>
        <time>2012-07-06T09:58:05+02:00</time>
      </trkpt>
      <trkpt lat="50.32785" lon="3.82213">
        <ele>120</ele>
        <time>2012-07-06T09:58:14+02:00</time>
      </trkpt>
      <trkpt lat="50.32778" lon="3.82201">
        <ele>120</ele>
        <time>2012-07-06T09:58:22+02:00</time>
      </trkpt>
      <trkpt lat="50.32769" lon="3.8219">
        <ele>120</ele>
        <time>2012-07-06T09:58:31+02:00</time>
      </trkpt>
      <trkpt lat="50.3276" lon="3.82181">
        <ele>120</ele>
        <time>2012-07-06T09:58:39+02:00</time>
      </trkpt>
      <trkpt lat="50.32749" lon="3.82174">
        <ele>120</ele>
        <time>2012-07-06T09:58:47+02:00</time>
      </trkpt>
      <trkpt lat="50.32738" lon="3.82173">
        <ele>120</ele>
        <time>2012-07-06T09:58:56+02:00</time>
      </trkpt>
      <trkpt lat="50.32728" lon="3.82175">
        <ele>120</ele>
        <time>2012-07-06T09:59:03+02:00</time>
      </trkpt>
      <trkpt lat="50.32721" lon="3.82188">
        <ele>120</ele>
        <time>2012-07-06T09:59:12+02:00</time>
      </trkpt>
      <trkpt lat="50.32712" lon="3.82201">
        <ele>119</ele>
        <time>2012-07-06T09:59:22+02:00</time>
      </trkpt>
      <trkpt lat="50.32702" lon="3.82213">
        <ele>119</ele>
        <time>2012-07-06T09:59:31+02:00</time>
      </trkpt>
      <trkpt lat="50.32693" lon="3.82223">
        <ele>119</ele>
        <time>2012-07-06T09:59:40+02:00</time>
      </trkpt>
      <trkpt lat="50.32687" lon="3.82239">
        <ele>119</ele>
        <time>2012-07-06T09:59:48+02:00</time>
      </trkpt>
      <trkpt lat="50.32682" lon="3.82257">
        <ele>118</ele>
        <time>2012-07-06T09:59:58+02:00</time>
      </trkpt>
      <trkpt lat="50.32681" lon="3.82274">
        <ele>118</ele>
        <time>2012-07-06T10:00:07+02:00</time>
      </trkpt>
      <trkpt lat="50.32679" lon="3.82294">
        <ele>118</ele>
        <time>2012-07-06T10:00:17+02:00</time>
      </trkpt>
      <trkpt lat="50.3268" lon="3.82318">
        <ele>118</ele>
        <time>2012-07-06T10:00:29+02:00</time>
      </trkpt>
      <trkpt lat="50.32681" lon="3.8234">
        <ele>118</ele>
        <time>2012-07-06T10:00:40+02:00</time>
      </trkpt>
      <trkpt lat="50.32681" lon="3.82362">
        <ele>118</ele>
        <time>2012-07-06T10:00:51+02:00</time>
      </trkpt>
      <trkpt lat="50.32684" lon="3.82383">
        <ele>118</ele>
        <time>2012-07-06T10:01:01+02:00</time>
      </trkpt>
      <trkpt lat="50.32684" lon="3.82401">
        <ele>118</ele>
        <time>2012-07-06T10:01:11+02:00</time>
      </trkpt>
      <trkpt lat="50.3268" lon="3.82418">
        <ele>118</ele>
        <time>2012-07-06T10:01:19+02:00</time>
      </trkpt>
      <trkpt lat="50.3268" lon="3.82436">
        <ele>117</ele>
        <time>2012-07-06T10:01:29+02:00</time>
      </trkpt>
      <trkpt lat="50.32679" lon="3.82457">
        <ele>117</ele>
        <time>2012-07-06T10:01:40+02:00</time>
      </trkpt>
      <trkpt lat="50.32678" lon="3.82474">
        <ele>117</ele>
        <time>2012-07-06T10:01:49+02:00</time>
      </trkpt>
      <trkpt lat="50.32676" lon="3.82493">
        <ele>116</ele>
        <time>2012-07-06T10:02:01+02:00</time>
      </trkpt>
      <trkpt lat="50.32668" lon="3.82508">
        <ele>116</ele>
        <time>2012-07-06T10:02:10+02:00</time>
      </trkpt>
      <trkpt lat="50.32657" lon="3.82515">
        <ele>116</ele>
        <time>2012-07-06T10:02:20+02:00</time>
      </trkpt>
      <trkpt lat="50.32646" lon="3.82522">
        <ele>117</ele>
        <time>2012-07-06T10:02:29+02:00</time>
      </trkpt>
      <trkpt lat="50.32636" lon="3.8253">
        <ele>117</ele>
        <time>2012-07-06T10:02:35+02:00</time>
      </trkpt>
      <trkpt lat="50.32626" lon="3.82538">
        <ele>117</ele>
        <time>2012-07-06T10:02:43+02:00</time>
      </trkpt>
      <trkpt lat="50.32619" lon="3.82547">
        <ele>117</ele>
        <time>2012-07-06T10:02:51+02:00</time>
      </trkpt>
      <trkpt lat="50.32615" lon="3.82559">
        <ele>117</ele>
        <time>2012-07-06T10:02:57+02:00</time>
      </trkpt>
      <trkpt lat="50.32611" lon="3.82573">
        <ele>117</ele>
        <time>2012-07-06T10:03:06+02:00</time>
      </trkpt>
      <trkpt lat="50.32604" lon="3.82583">
        <ele>117</ele>
        <time>2012-07-06T10:03:13+02:00</time>
      </trkpt>
      <trkpt lat="50.32597" lon="3.82593">
        <ele>117</ele>
        <time>2012-07-06T10:03:19+02:00</time>
      </trkpt>
      <trkpt lat="50.3259" lon="3.82603">
        <ele>117</ele>
        <time>2012-07-06T10:03:28+02:00</time>
      </trkpt>
      <trkpt lat="50.32582" lon="3.82612">
        <ele>117</ele>
        <time>2012-07-06T10:03:34+02:00</time>
      </trkpt>
      <trkpt lat="50.32575" lon="3.82622">
        <ele>117</ele>
        <time>2012-07-06T10:03:42+02:00</time>
      </trkpt>
      <trkpt lat="50.32567" lon="3.82634">
        <ele>118</ele>
        <time>2012-07-06T10:03:49+02:00</time>
      </trkpt>
      <trkpt lat="50.32562" lon="3.82645">
        <ele>118</ele>
        <time>2012-07-06T10:03:55+02:00</time>
      </trkpt>
      <trkpt lat="50.32555" lon="3.82657">
        <ele>118</ele>
        <time>2012-07-06T10:04:04+02:00</time>
      </trkpt>
      <trkpt lat="50.32547" lon="3.82667">
        <ele>118</ele>
        <time>2012-07-06T10:04:11+02:00</time>
      </trkpt>
      <trkpt lat="50.32542" lon="3.82678">
        <ele>118</ele>
        <time>2012-07-06T10:04:18+02:00</time>
      </trkpt>
      <trkpt lat="50.32534" lon="3.82689">
        <ele>118</ele>
        <time>2012-07-06T10:04:29+02:00</time>
      </trkpt>
      <trkpt lat="50.32526" lon="3.82697">
        <ele>118</ele>
        <time>2012-07-06T10:05:21+02:00</time>
      </trkpt>
      <trkpt lat="50.32517" lon="3.82688">
        <ele>118</ele>
        <time>2012-07-06T10:05:28+02:00</time>
      </trkpt>
      <trkpt lat="50.32509" lon="3.82674">
        <ele>118</ele>
        <time>2012-07-06T10:05:38+02:00</time>
      </trkpt>
      <trkpt lat="50.32504" lon="3.82668">
        <ele>118</ele>
        <time>2012-07-06T10:06:49+02:00</time>
      </trkpt>
      <trkpt lat="50.32498" lon="3.82679">
        <ele>118</ele>
        <time>2012-07-06T10:06:56+02:00</time>
      </trkpt>
      <trkpt lat="50.32491" lon="3.8269">
        <ele>118</ele>
        <time>2012-07-06T10:07:04+02:00</time>
      </trkpt>
      <trkpt lat="50.32484" lon="3.82699">
        <ele>118</ele>
        <time>2012-07-06T10:07:13+02:00</time>
      </trkpt>
      <trkpt lat="50.32477" lon="3.8271">
        <ele>119</ele>
        <time>2012-07-06T10:07:22+02:00</time>
      </trkpt>
      <trkpt lat="50.32471" lon="3.82721">
        <ele>119</ele>
        <time>2012-07-06T10:07:32+02:00</time>
      </trkpt>
      <trkpt lat="50.32466" lon="3.82734">
        <ele>119</ele>
        <time>2012-07-06T10:07:39+02:00</time>
      </trkpt>
      <trkpt lat="50.32461" lon="3.82744">
        <ele>119</ele>
        <time>2012-07-06T10:07:47+02:00</time>
      </trkpt>
      <trkpt lat="50.32454" lon="3.82755">
        <ele>120</ele>
        <time>2012-07-06T10:07:55+02:00</time>
      </trkpt>
      <trkpt lat="50.32448" lon="3.82768">
        <ele>121</ele>
        <time>2012-07-06T10:08:03+02:00</time>
      </trkpt>
      <trkpt lat="50.32443" lon="3.82782">
        <ele>121</ele>
        <time>2012-07-06T10:08:11+02:00</time>
      </trkpt>
      <trkpt lat="50.32438" lon="3.82795">
        <ele>122</ele>
        <time>2012-07-06T10:08:18+02:00</time>
      </trkpt>
      <trkpt lat="50.32433" lon="3.82809">
        <ele>123</ele>
        <time>2012-07-06T10:08:26+02:00</time>
      </trkpt>
      <trkpt lat="50.32427" lon="3.8282">
        <ele>124</ele>
        <time>2012-07-06T10:08:34+02:00</time>
      </trkpt>
      <trkpt lat="50.32422" lon="3.82833">
        <ele>125</ele>
        <time>2012-07-06T10:08:42+02:00</time>
      </trkpt>
      <trkpt lat="50.32413" lon="3.82843">
        <ele>125</ele>
        <time>2012-07-06T10:08:50+02:00</time>
      </trkpt>
      <trkpt lat="50.32405" lon="3.82851">
        <ele>125</ele>
        <time>2012-07-06T10:08:57+02:00</time>
      </trkpt>
      <trkpt lat="50.32398" lon="3.82861">
        <ele>126</ele>
        <time>2012-07-06T10:09:05+02:00</time>
      </trkpt>
      <trkpt lat="50.32388" lon="3.8287">
        <ele>126</ele>
        <time>2012-07-06T10:09:13+02:00</time>
      </trkpt>
      <trkpt lat="50.32378" lon="3.82878">
        <ele>126</ele>
        <time>2012-07-06T10:09:21+02:00</time>
      </trkpt>
      <trkpt lat="50.32369" lon="3.82886">
        <ele>126</ele>
        <time>2012-07-06T10:09:29+02:00</time>
      </trkpt>
      <trkpt lat="50.32361" lon="3.82897">
        <ele>126</ele>
        <time>2012-07-06T10:09:37+02:00</time>
      </trkpt>
      <trkpt lat="50.32353" lon="3.82906">
        <ele>126</ele>
        <time>2012-07-06T10:09:45+02:00</time>
      </trkpt>
      <trkpt lat="50.32343" lon="3.82916">
        <ele>126</ele>
        <time>2012-07-06T10:09:54+02:00</time>
      </trkpt>
      <trkpt lat="50.32333" lon="3.82926">
        <ele>126</ele>
        <time>2012-07-06T10:10:02+02:00</time>
      </trkpt>
      <trkpt lat="50.32324" lon="3.82936">
        <ele>126</ele>
        <time>2012-07-06T10:10:10+02:00</time>
      </trkpt>
      <trkpt lat="50.32315" lon="3.82949">
        <ele>125</ele>
        <time>2012-07-06T10:10:19+02:00</time>
      </trkpt>
      <trkpt lat="50.32307" lon="3.82958">
        <ele>125</ele>
        <time>2012-07-06T10:10:27+02:00</time>
      </trkpt>
      <trkpt lat="50.323" lon="3.8297">
        <ele>125</ele>
        <time>2012-07-06T10:10:36+02:00</time>
      </trkpt>
      <trkpt lat="50.3229" lon="3.82984">
        <ele>124</ele>
        <time>2012-07-06T10:10:45+02:00</time>
      </trkpt>
      <trkpt lat="50.32281" lon="3.82988">
        <ele>124</ele>
        <time>2012-07-06T10:10:52+02:00</time>
      </trkpt>
      <trkpt lat="50.32275" lon="3.82999">
        <ele>124</ele>
        <time>2012-07-06T10:11:00+02:00</time>
      </trkpt>
      <trkpt lat="50.32267" lon="3.83007">
        <ele>124</ele>
        <time>2012-07-06T10:11:07+02:00</time>
      </trkpt>
      <trkpt lat="50.32258" lon="3.83013">
        <ele>124</ele>
        <time>2012-07-06T10:11:14+02:00</time>
      </trkpt>
      <trkpt lat="50.32249" lon="3.8302">
        <ele>124</ele>
        <time>2012-07-06T10:11:22+02:00</time>
      </trkpt>
      <trkpt lat="50.32242" lon="3.83029">
        <ele>124</ele>
        <time>2012-07-06T10:11:30+02:00</time>
      </trkpt>
      <trkpt lat="50.32231" lon="3.83035">
        <ele>125</ele>
        <time>2012-07-06T10:11:39+02:00</time>
      </trkpt>
      <trkpt lat="50.32222" lon="3.83042">
        <ele>126</ele>
        <time>2012-07-06T10:11:45+02:00</time>
      </trkpt>
      <trkpt lat="50.32213" lon="3.8305">
        <ele>127</ele>
        <time>2012-07-06T10:11:52+02:00</time>
      </trkpt>
      <trkpt lat="50.32204" lon="3.83056">
        <ele>127</ele>
        <time>2012-07-06T10:11:59+02:00</time>
      </trkpt>
      <trkpt lat="50.32195" lon="3.83062">
        <ele>128</ele>
        <time>2012-07-06T10:12:07+02:00</time>
      </trkpt>
      <trkpt lat="50.32186" lon="3.83071">
        <ele>129</ele>
        <time>2012-07-06T10:12:15+02:00</time>
      </trkpt>
      <trkpt lat="50.32177" lon="3.8308">
        <ele>129</ele>
        <time>2012-07-06T10:12:24+02:00</time>
      </trkpt>
      <trkpt lat="50.32169" lon="3.8309">
        <ele>130</ele>
        <time>2012-07-06T10:12:31+02:00</time>
      </trkpt>
      <trkpt lat="50.32159" lon="3.83097">
        <ele>131</ele>
        <time>2012-07-06T10:12:40+02:00</time>
      </trkpt>
      <trkpt lat="50.32151" lon="3.83103">
        <ele>131</ele>
        <time>2012-07-06T10:12:49+02:00</time>
      </trkpt>
      <trkpt lat="50.32142" lon="3.83111">
        <ele>131</ele>
        <time>2012-07-06T10:12:56+02:00</time>
      </trkpt>
      <trkpt lat="50.32133" lon="3.83117">
        <ele>132</ele>
        <time>2012-07-06T10:13:06+02:00</time>
      </trkpt>
      <trkpt lat="50.32123" lon="3.83124">
        <ele>132</ele>
        <time>2012-07-06T10:13:15+02:00</time>
      </trkpt>
      <trkpt lat="50.32116" lon="3.83116">
        <ele>132</ele>
        <time>2012-07-06T10:13:38+02:00</time>
      </trkpt>
      <trkpt lat="50.3211" lon="3.83103">
        <ele>132</ele>
        <time>2012-07-06T10:13:45+02:00</time>
      </trkpt>
      <trkpt lat="50.32105" lon="3.83089">
        <ele>132</ele>
        <time>2012-07-06T10:13:53+02:00</time>
      </trkpt>
      <trkpt lat="50.321" lon="3.83074">
        <ele>132</ele>
        <time>2012-07-06T10:14:02+02:00</time>
      </trkpt>
      <trkpt lat="50.32096" lon="3.83061">
        <ele>132</ele>
        <time>2012-07-06T10:14:10+02:00</time>
      </trkpt>
      <trkpt lat="50.32095" lon="3.83045">
        <ele>131</ele>
        <time>2012-07-06T10:14:18+02:00</time>
      </trkpt>
      <trkpt lat="50.32092" lon="3.8303">
        <ele>131</ele>
        <time>2012-07-06T10:14:27+02:00</time>
      </trkpt>
      <trkpt lat="50.32092" lon="3.83015">
        <ele>130</ele>
        <time>2012-07-06T10:14:36+02:00</time>
      </trkpt>
      <trkpt lat="50.32093" lon="3.83">
        <ele>130</ele>
        <time>2012-07-06T10:14:43+02:00</time>
      </trkpt>
      <trkpt lat="50.32091" lon="3.82986">
        <ele>129</ele>
        <time>2012-07-06T10:14:50+02:00</time>
      </trkpt>
      <trkpt lat="50.32083" lon="3.8297">
        <ele>129</ele>
        <time>2012-07-06T10:15:00+02:00</time>
      </trkpt>
      <trkpt lat="50.32074" lon="3.82957">
        <ele>129</ele>
        <time>2012-07-06T10:15:10+02:00</time>
      </trkpt>
      <trkpt lat="50.32065" lon="3.82944">
        <ele>129</ele>
        <time>2012-07-06T10:15:18+02:00</time>
      </trkpt>
      <trkpt lat="50.32055" lon="3.82934">
        <ele>129</ele>
        <time>2012-07-06T10:15:27+02:00</time>
      </trkpt>
      <trkpt lat="50.32046" lon="3.82933">
        <ele>129</ele>
        <time>2012-07-06T10:15:34+02:00</time>
      </trkpt>
      <trkpt lat="50.32035" lon="3.82931">
        <ele>130</ele>
        <time>2012-07-06T10:15:42+02:00</time>
      </trkpt>
      <trkpt lat="50.32027" lon="3.82936">
        <ele>131</ele>
        <time>2012-07-06T10:15:50+02:00</time>
      </trkpt>
      <trkpt lat="50.32018" lon="3.82939">
        <ele>131</ele>
        <time>2012-07-06T10:15:58+02:00</time>
      </trkpt>
      <trkpt lat="50.32008" lon="3.82942">
        <ele>132</ele>
        <time>2012-07-06T10:16:06+02:00</time>
      </trkpt>
      <trkpt lat="50.31998" lon="3.82945">
        <ele>132</ele>
        <time>2012-07-06T10:16:14+02:00</time>
      </trkpt>
      <trkpt lat="50.31989" lon="3.82949">
        <ele>133</ele>
        <time>2012-07-06T10:16:21+02:00</time>
      </trkpt>
      <trkpt lat="50.31979" lon="3.82954">
        <ele>134</ele>
        <time>2012-07-06T10:16:29+02:00</time>
      </trkpt>
      <trkpt lat="50.31976" lon="3.82973">
        <ele>135</ele>
        <time>2012-07-06T10:16:37+02:00</time>
      </trkpt>
      <trkpt lat="50.31975" lon="3.82989">
        <ele>135</ele>
        <time>2012-07-06T10:16:45+02:00</time>
      </trkpt>
      <trkpt lat="50.31973" lon="3.83003">
        <ele>136</ele>
        <time>2012-07-06T10:16:52+02:00</time>
      </trkpt>
      <trkpt lat="50.31968" lon="3.83017">
        <ele>136</ele>
        <time>2012-07-06T10:16:59+02:00</time>
      </trkpt>
      <trkpt lat="50.31965" lon="3.83032">
        <ele>136</ele>
        <time>2012-07-06T10:17:07+02:00</time>
      </trkpt>
      <trkpt lat="50.31962" lon="3.83045">
        <ele>137</ele>
        <time>2012-07-06T10:17:14+02:00</time>
      </trkpt>
      <trkpt lat="50.31959" lon="3.83059">
        <ele>137</ele>
        <time>2012-07-06T10:17:22+02:00</time>
      </trkpt>
      <trkpt lat="50.31956" lon="3.83072">
        <ele>137</ele>
        <time>2012-07-06T10:17:31+02:00</time>
      </trkpt>
      <trkpt lat="50.31953" lon="3.83087">
        <ele>138</ele>
        <time>2012-07-06T10:17:40+02:00</time>
      </trkpt>
      <trkpt lat="50.3195" lon="3.831">
        <ele>138</ele>
        <time>2012-07-06T10:17:47+02:00</time>
      </trkpt>
      <trkpt lat="50.3195" lon="3.83116">
        <ele>138</ele>
        <time>2012-07-06T10:17:55+02:00</time>
      </trkpt>
      <trkpt lat="50.31951" lon="3.83131">
        <ele>138</ele>
        <time>2012-07-06T10:18:02+02:00</time>
      </trkpt>
      <trkpt lat="50.31952" lon="3.83146">
        <ele>138</ele>
        <time>2012-07-06T10:18:09+02:00</time>
      </trkpt>
      <trkpt lat="50.31955" lon="3.83159">
        <ele>138</ele>
        <time>2012-07-06T10:18:17+02:00</time>
      </trkpt>
      <trkpt lat="50.31958" lon="3.83175">
        <ele>139</ele>
        <time>2012-07-06T10:18:25+02:00</time>
      </trkpt>
      <trkpt lat="50.31961" lon="3.83192">
        <ele>139</ele>
        <time>2012-07-06T10:18:33+02:00</time>
      </trkpt>
      <trkpt lat="50.31961" lon="3.83207">
        <ele>139</ele>
        <time>2012-07-06T10:18:40+02:00</time>
      </trkpt>
      <trkpt lat="50.3196" lon="3.8322">
        <ele>139</ele>
        <time>2012-07-06T10:18:47+02:00</time>
      </trkpt>
      <trkpt lat="50.31957" lon="3.83235">
        <ele>140</ele>
        <time>2012-07-06T10:18:55+02:00</time>
      </trkpt>
      <trkpt lat="50.31953" lon="3.83248">
        <ele>140</ele>
        <time>2012-07-06T10:19:01+02:00</time>
      </trkpt>
      <trkpt lat="50.31951" lon="3.83261">
        <ele>140</ele>
        <time>2012-07-06T10:19:09+02:00</time>
      </trkpt>
      <trkpt lat="50.31949" lon="3.83277">
        <ele>140</ele>
        <time>2012-07-06T10:19:17+02:00</time>
      </trkpt>
      <trkpt lat="50.31948" lon="3.83292">
        <ele>141</ele>
        <time>2012-07-06T10:19:25+02:00</time>
      </trkpt>
      <trkpt lat="50.31946" lon="3.83305">
        <ele>141</ele>
        <time>2012-07-06T10:19:32+02:00</time>
      </trkpt>
      <trkpt lat="50.31944" lon="3.83321">
        <ele>141</ele>
        <time>2012-07-06T10:19:39+02:00</time>
      </trkpt>
      <trkpt lat="50.31943" lon="3.83334">
        <ele>141</ele>
        <time>2012-07-06T10:19:45+02:00</time>
      </trkpt>
      <trkpt lat="50.31939" lon="3.8335">
        <ele>142</ele>
        <time>2012-07-06T10:19:53+02:00</time>
      </trkpt>
      <trkpt lat="50.31936" lon="3.83363">
        <ele>142</ele>
        <time>2012-07-06T10:20:02+02:00</time>
      </trkpt>
      <trkpt lat="50.31934" lon="3.83379">
        <ele>142</ele>
        <time>2012-07-06T10:20:07+02:00</time>
      </trkpt>
      <trkpt lat="50.31931" lon="3.83392">
        <ele>142</ele>
        <time>2012-07-06T10:20:16+02:00</time>
      </trkpt>
      <trkpt lat="50.31929" lon="3.83406">
        <ele>143</ele>
        <time>2012-07-06T10:20:22+02:00</time>
      </trkpt>
      <trkpt lat="50.31926" lon="3.83421">
        <ele>143</ele>
        <time>2012-07-06T10:20:32+02:00</time>
      </trkpt>
      <trkpt lat="50.31924" lon="3.83437">
        <ele>143</ele>
        <time>2012-07-06T10:20:38+02:00</time>
      </trkpt>
      <trkpt lat="50.31922" lon="3.8345">
        <ele>144</ele>
        <time>2012-07-06T10:20:45+02:00</time>
      </trkpt>
      <trkpt lat="50.3192" lon="3.83465">
        <ele>144</ele>
        <time>2012-07-06T10:20:53+02:00</time>
      </trkpt>
      <trkpt lat="50.31919" lon="3.83472">
        <ele>144</ele>
        <time>2012-07-06T10:21:02+02:00</time>
      </trkpt>
      <trkpt lat="50.31925" lon="3.83484">
        <ele>145</ele>
        <time>2012-07-06T10:21:20+02:00</time>
      </trkpt>
    </trkseg>
  </trk>
</gpx>